<?xml version="1.0" encoding="UTF-8" standalone="no" ?>
<gpx xmlns="http://www.topografix.com/GPX/1/1" xmlns:xsi="http://www.w3.org/2001/XMLSchema-instance" xsi:schemaLocation="http://www.topografix.com/GPX/1/1 http://www.topografix.com/GPX/1/1/gpx.xsd" version="1.1" creator="VisuGPX - https://www.visugpx.com">
  <metadata>
    <name>50Km Mazé 2023</name>
  </metadata>
  <trk>
    <name><![CDATA[20230618Cyclisme en extérieur]]></name>
    <extensions>
      <line xmlns="http://www.topografix.com/GPX/gpx_style/0/2">
        <color>0000FF</color>
        <width>4</width>
      </line>
    </extensions>
    <trkseg>
      <trkpt lat="47.46142" lon="-0.27132">
        <ele>33</ele>
        <time>2023-06-18T06:17:27.000Z</time>
      </trkpt>
      <trkpt lat="47.46148" lon="-0.27131">
        <ele>33</ele>
        <time>2023-06-18T06:17:29.000Z</time>
      </trkpt>
      <trkpt lat="47.46142" lon="-0.27136">
        <ele>33</ele>
        <time>2023-06-18T06:18:12.000Z</time>
      </trkpt>
      <trkpt lat="47.46133" lon="-0.27133">
        <ele>33</ele>
        <time>2023-06-18T06:18:16.000Z</time>
      </trkpt>
      <trkpt lat="47.461" lon="-0.27099">
        <ele>32</ele>
        <time>2023-06-18T06:18:26.000Z</time>
      </trkpt>
      <trkpt lat="47.46091" lon="-0.27077">
        <ele>32</ele>
        <time>2023-06-18T06:18:30.000Z</time>
      </trkpt>
      <trkpt lat="47.46089" lon="-0.27063">
        <ele>32</ele>
        <time>2023-06-18T06:18:32.000Z</time>
      </trkpt>
      <trkpt lat="47.46095" lon="-0.27033">
        <ele>32</ele>
        <time>2023-06-18T06:18:36.000Z</time>
      </trkpt>
      <trkpt lat="47.46115" lon="-0.26978">
        <ele>32</ele>
        <time>2023-06-18T06:18:44.000Z</time>
      </trkpt>
      <trkpt lat="47.46133" lon="-0.26939">
        <ele>32</ele>
        <time>2023-06-18T06:18:50.000Z</time>
      </trkpt>
      <trkpt lat="47.46146" lon="-0.26919">
        <ele>32</ele>
        <time>2023-06-18T06:18:54.000Z</time>
      </trkpt>
      <trkpt lat="47.46154" lon="-0.26917">
        <ele>32</ele>
        <time>2023-06-18T06:18:56.000Z</time>
      </trkpt>
      <trkpt lat="47.46163" lon="-0.26922">
        <ele>32.2</ele>
        <time>2023-06-18T06:18:58.000Z</time>
      </trkpt>
      <trkpt lat="47.46204" lon="-0.26964">
        <ele>32.4</ele>
        <time>2023-06-18T06:19:16.000Z</time>
      </trkpt>
      <trkpt lat="47.46219" lon="-0.26976">
        <ele>32.9</ele>
        <time>2023-06-18T06:19:20.000Z</time>
      </trkpt>
      <trkpt lat="47.46239" lon="-0.26977">
        <ele>33</ele>
        <time>2023-06-18T06:19:24.000Z</time>
      </trkpt>
      <trkpt lat="47.46259" lon="-0.26969">
        <ele>32.6</ele>
        <time>2023-06-18T06:19:28.000Z</time>
      </trkpt>
      <trkpt lat="47.46309" lon="-0.2693">
        <ele>32.1</ele>
        <time>2023-06-18T06:19:38.000Z</time>
      </trkpt>
      <trkpt lat="47.46406" lon="-0.26874">
        <ele>33</ele>
        <time>2023-06-18T06:19:56.000Z</time>
      </trkpt>
      <trkpt lat="47.46476" lon="-0.26812">
        <ele>33.1</ele>
        <time>2023-06-18T06:20:10.000Z</time>
      </trkpt>
      <trkpt lat="47.46532" lon="-0.26787">
        <ele>34</ele>
        <time>2023-06-18T06:20:20.000Z</time>
      </trkpt>
      <trkpt lat="47.46571" lon="-0.26756">
        <ele>34</ele>
        <time>2023-06-18T06:20:28.000Z</time>
      </trkpt>
      <trkpt lat="47.4657" lon="-0.26754">
        <ele>34</ele>
        <time>2023-06-18T06:22:56.000Z</time>
      </trkpt>
      <trkpt lat="47.466" lon="-0.26785">
        <ele>34</ele>
        <time>2023-06-18T06:23:04.000Z</time>
      </trkpt>
      <trkpt lat="47.46632" lon="-0.26836">
        <ele>35</ele>
        <time>2023-06-18T06:23:14.000Z</time>
      </trkpt>
      <trkpt lat="47.4666" lon="-0.26889">
        <ele>35.7</ele>
        <time>2023-06-18T06:23:24.000Z</time>
      </trkpt>
      <trkpt lat="47.4669" lon="-0.26925">
        <ele>36.3</ele>
        <time>2023-06-18T06:23:32.000Z</time>
      </trkpt>
      <trkpt lat="47.46726" lon="-0.26983">
        <ele>37.5</ele>
        <time>2023-06-18T06:23:46.000Z</time>
      </trkpt>
      <trkpt lat="47.46757" lon="-0.2702">
        <ele>38.2</ele>
        <time>2023-06-18T06:23:54.000Z</time>
      </trkpt>
      <trkpt lat="47.46788" lon="-0.27065">
        <ele>39.1</ele>
        <time>2023-06-18T06:24:04.000Z</time>
      </trkpt>
      <trkpt lat="47.46801" lon="-0.27093">
        <ele>39.9</ele>
        <time>2023-06-18T06:24:10.000Z</time>
      </trkpt>
      <trkpt lat="47.4684" lon="-0.2716">
        <ele>41</ele>
        <time>2023-06-18T06:24:24.000Z</time>
      </trkpt>
      <trkpt lat="47.46882" lon="-0.2722">
        <ele>42</ele>
        <time>2023-06-18T06:24:38.000Z</time>
      </trkpt>
      <trkpt lat="47.46895" lon="-0.27258">
        <ele>42.4</ele>
        <time>2023-06-18T06:24:46.000Z</time>
      </trkpt>
      <trkpt lat="47.46926" lon="-0.27307">
        <ele>43.3</ele>
        <time>2023-06-18T06:24:58.000Z</time>
      </trkpt>
      <trkpt lat="47.46934" lon="-0.2731">
        <ele>43.6</ele>
        <time>2023-06-18T06:25:00.000Z</time>
      </trkpt>
      <trkpt lat="47.46976" lon="-0.27309">
        <ele>44</ele>
        <time>2023-06-18T06:25:08.000Z</time>
      </trkpt>
      <trkpt lat="47.4705" lon="-0.27334">
        <ele>45</ele>
        <time>2023-06-18T06:25:24.000Z</time>
      </trkpt>
      <trkpt lat="47.47135" lon="-0.27352">
        <ele>45.7</ele>
        <time>2023-06-18T06:25:40.000Z</time>
      </trkpt>
      <trkpt lat="47.47155" lon="-0.27351">
        <ele>45.6</ele>
        <time>2023-06-18T06:25:44.000Z</time>
      </trkpt>
      <trkpt lat="47.47176" lon="-0.27342">
        <ele>45.5</ele>
        <time>2023-06-18T06:25:48.000Z</time>
      </trkpt>
      <trkpt lat="47.47236" lon="-0.27282">
        <ele>45</ele>
        <time>2023-06-18T06:26:00.000Z</time>
      </trkpt>
      <trkpt lat="47.47319" lon="-0.27217">
        <ele>43.5</ele>
        <time>2023-06-18T06:26:16.000Z</time>
      </trkpt>
      <trkpt lat="47.47369" lon="-0.27161">
        <ele>42.7</ele>
        <time>2023-06-18T06:26:28.000Z</time>
      </trkpt>
      <trkpt lat="47.47419" lon="-0.27115">
        <ele>41.9</ele>
        <time>2023-06-18T06:26:38.000Z</time>
      </trkpt>
      <trkpt lat="47.47441" lon="-0.27101">
        <ele>41.5</ele>
        <time>2023-06-18T06:26:42.000Z</time>
      </trkpt>
      <trkpt lat="47.47477" lon="-0.27085">
        <ele>41</ele>
        <time>2023-06-18T06:26:48.000Z</time>
      </trkpt>
      <trkpt lat="47.47592" lon="-0.27057">
        <ele>40</ele>
        <time>2023-06-18T06:27:06.000Z</time>
      </trkpt>
      <trkpt lat="47.47702" lon="-0.27048">
        <ele>39</ele>
        <time>2023-06-18T06:27:22.000Z</time>
      </trkpt>
      <trkpt lat="47.47713" lon="-0.27053">
        <ele>39</ele>
        <time>2023-06-18T06:27:24.000Z</time>
      </trkpt>
      <trkpt lat="47.47723" lon="-0.27064">
        <ele>39</ele>
        <time>2023-06-18T06:27:26.000Z</time>
      </trkpt>
      <trkpt lat="47.47757" lon="-0.27147">
        <ele>39</ele>
        <time>2023-06-18T06:27:36.000Z</time>
      </trkpt>
      <trkpt lat="47.47766" lon="-0.27182">
        <ele>39.3</ele>
        <time>2023-06-18T06:27:40.000Z</time>
      </trkpt>
      <trkpt lat="47.47767" lon="-0.27199">
        <ele>39.6</ele>
        <time>2023-06-18T06:27:42.000Z</time>
      </trkpt>
      <trkpt lat="47.47764" lon="-0.27447">
        <ele>41.1</ele>
        <time>2023-06-18T06:28:12.000Z</time>
      </trkpt>
      <trkpt lat="47.47766" lon="-0.27601">
        <ele>42.8</ele>
        <time>2023-06-18T06:28:32.000Z</time>
      </trkpt>
      <trkpt lat="47.47764" lon="-0.27682">
        <ele>43.3</ele>
        <time>2023-06-18T06:28:48.000Z</time>
      </trkpt>
      <trkpt lat="47.47762" lon="-0.27664">
        <ele>43</ele>
        <time>2023-06-18T06:29:30.000Z</time>
      </trkpt>
      <trkpt lat="47.47768" lon="-0.27683">
        <ele>43.4</ele>
        <time>2023-06-18T06:29:42.000Z</time>
      </trkpt>
      <trkpt lat="47.47778" lon="-0.27683">
        <ele>43.6</ele>
        <time>2023-06-18T06:29:46.000Z</time>
      </trkpt>
      <trkpt lat="47.47922" lon="-0.27601">
        <ele>43.1</ele>
        <time>2023-06-18T06:30:18.000Z</time>
      </trkpt>
      <trkpt lat="47.48033" lon="-0.27554">
        <ele>41.8</ele>
        <time>2023-06-18T06:30:38.000Z</time>
      </trkpt>
      <trkpt lat="47.4808" lon="-0.27521">
        <ele>40.8</ele>
        <time>2023-06-18T06:30:46.000Z</time>
      </trkpt>
      <trkpt lat="47.48093" lon="-0.27517">
        <ele>40.4</ele>
        <time>2023-06-18T06:30:48.000Z</time>
      </trkpt>
      <trkpt lat="47.48105" lon="-0.27518">
        <ele>40.2</ele>
        <time>2023-06-18T06:30:50.000Z</time>
      </trkpt>
      <trkpt lat="47.48113" lon="-0.2753">
        <ele>39.9</ele>
        <time>2023-06-18T06:30:52.000Z</time>
      </trkpt>
      <trkpt lat="47.48191" lon="-0.27811">
        <ele>41</ele>
        <time>2023-06-18T06:31:24.000Z</time>
      </trkpt>
      <trkpt lat="47.48235" lon="-0.2796">
        <ele>41.5</ele>
        <time>2023-06-18T06:31:48.000Z</time>
      </trkpt>
      <trkpt lat="47.48306" lon="-0.28148">
        <ele>41.3</ele>
        <time>2023-06-18T06:32:12.000Z</time>
      </trkpt>
      <trkpt lat="47.48335" lon="-0.28239">
        <ele>42</ele>
        <time>2023-06-18T06:32:24.000Z</time>
      </trkpt>
      <trkpt lat="47.48375" lon="-0.28348">
        <ele>42.5</ele>
        <time>2023-06-18T06:32:38.000Z</time>
      </trkpt>
      <trkpt lat="47.48418" lon="-0.28455">
        <ele>42</ele>
        <time>2023-06-18T06:32:53.000Z</time>
      </trkpt>
      <trkpt lat="47.48492" lon="-0.28667">
        <ele>43.3</ele>
        <time>2023-06-18T06:33:21.000Z</time>
      </trkpt>
      <trkpt lat="47.48531" lon="-0.28788">
        <ele>43.3</ele>
        <time>2023-06-18T06:33:37.000Z</time>
      </trkpt>
      <trkpt lat="47.48529" lon="-0.28812">
        <ele>43.9</ele>
        <time>2023-06-18T06:33:41.000Z</time>
      </trkpt>
      <trkpt lat="47.48524" lon="-0.28818">
        <ele>44</ele>
        <time>2023-06-18T06:33:43.000Z</time>
      </trkpt>
      <trkpt lat="47.4851" lon="-0.2882">
        <ele>44</ele>
        <time>2023-06-18T06:33:47.000Z</time>
      </trkpt>
      <trkpt lat="47.48494" lon="-0.28814">
        <ele>44.2</ele>
        <time>2023-06-18T06:33:51.000Z</time>
      </trkpt>
      <trkpt lat="47.48451" lon="-0.28785">
        <ele>44.8</ele>
        <time>2023-06-18T06:34:01.000Z</time>
      </trkpt>
      <trkpt lat="47.48355" lon="-0.2873">
        <ele>46</ele>
        <time>2023-06-18T06:34:21.000Z</time>
      </trkpt>
      <trkpt lat="47.48315" lon="-0.28696">
        <ele>46</ele>
        <time>2023-06-18T06:34:29.000Z</time>
      </trkpt>
      <trkpt lat="47.48265" lon="-0.2866">
        <ele>45.9</ele>
        <time>2023-06-18T06:34:39.000Z</time>
      </trkpt>
      <trkpt lat="47.4819" lon="-0.28615">
        <ele>47</ele>
        <time>2023-06-18T06:34:53.000Z</time>
      </trkpt>
      <trkpt lat="47.48091" lon="-0.2854">
        <ele>49.1</ele>
        <time>2023-06-18T06:35:13.000Z</time>
      </trkpt>
      <trkpt lat="47.48071" lon="-0.28541">
        <ele>50.1</ele>
        <time>2023-06-18T06:35:17.000Z</time>
      </trkpt>
      <trkpt lat="47.48037" lon="-0.28567">
        <ele>51.5</ele>
        <time>2023-06-18T06:35:25.000Z</time>
      </trkpt>
      <trkpt lat="47.48031" lon="-0.28576">
        <ele>51.8</ele>
        <time>2023-06-18T06:35:27.000Z</time>
      </trkpt>
      <trkpt lat="47.48019" lon="-0.28601">
        <ele>51.6</ele>
        <time>2023-06-18T06:35:31.000Z</time>
      </trkpt>
      <trkpt lat="47.48016" lon="-0.28615">
        <ele>51.4</ele>
        <time>2023-06-18T06:35:33.000Z</time>
      </trkpt>
      <trkpt lat="47.48021" lon="-0.28645">
        <ele>51.2</ele>
        <time>2023-06-18T06:35:37.000Z</time>
      </trkpt>
      <trkpt lat="47.48051" lon="-0.28707">
        <ele>50</ele>
        <time>2023-06-18T06:35:45.000Z</time>
      </trkpt>
      <trkpt lat="47.4814" lon="-0.28912">
        <ele>48</ele>
        <time>2023-06-18T06:36:11.000Z</time>
      </trkpt>
      <trkpt lat="47.48146" lon="-0.28926">
        <ele>48</ele>
        <time>2023-06-18T06:36:13.000Z</time>
      </trkpt>
      <trkpt lat="47.48155" lon="-0.28935">
        <ele>48</ele>
        <time>2023-06-18T06:36:15.000Z</time>
      </trkpt>
      <trkpt lat="47.48164" lon="-0.28936">
        <ele>48</ele>
        <time>2023-06-18T06:36:17.000Z</time>
      </trkpt>
      <trkpt lat="47.48191" lon="-0.28914">
        <ele>48</ele>
        <time>2023-06-18T06:36:23.000Z</time>
      </trkpt>
      <trkpt lat="47.48272" lon="-0.2883">
        <ele>47</ele>
        <time>2023-06-18T06:36:41.000Z</time>
      </trkpt>
      <trkpt lat="47.48281" lon="-0.28827">
        <ele>46.9</ele>
        <time>2023-06-18T06:36:43.000Z</time>
      </trkpt>
      <trkpt lat="47.48289" lon="-0.28829">
        <ele>46.6</ele>
        <time>2023-06-18T06:36:45.000Z</time>
      </trkpt>
      <trkpt lat="47.48296" lon="-0.28838">
        <ele>46.4</ele>
        <time>2023-06-18T06:36:47.000Z</time>
      </trkpt>
      <trkpt lat="47.48386" lon="-0.29002">
        <ele>46</ele>
        <time>2023-06-18T06:37:15.000Z</time>
      </trkpt>
      <trkpt lat="47.48479" lon="-0.29186">
        <ele>44.8</ele>
        <time>2023-06-18T06:37:43.000Z</time>
      </trkpt>
      <trkpt lat="47.48573" lon="-0.2935">
        <ele>40.9</ele>
        <time>2023-06-18T06:38:07.000Z</time>
      </trkpt>
      <trkpt lat="47.48573" lon="-0.29359">
        <ele>40.7</ele>
        <time>2023-06-18T06:38:09.000Z</time>
      </trkpt>
      <trkpt lat="47.48568" lon="-0.2937">
        <ele>39.9</ele>
        <time>2023-06-18T06:38:11.000Z</time>
      </trkpt>
      <trkpt lat="47.4852" lon="-0.29463">
        <ele>34.2</ele>
        <time>2023-06-18T06:38:23.000Z</time>
      </trkpt>
      <trkpt lat="47.48513" lon="-0.2948">
        <ele>33.3</ele>
        <time>2023-06-18T06:38:25.000Z</time>
      </trkpt>
      <trkpt lat="47.48512" lon="-0.29495">
        <ele>33.1</ele>
        <time>2023-06-18T06:38:27.000Z</time>
      </trkpt>
      <trkpt lat="47.4852" lon="-0.29502">
        <ele>32.9</ele>
        <time>2023-06-18T06:38:29.000Z</time>
      </trkpt>
      <trkpt lat="47.48532" lon="-0.29506">
        <ele>32.9</ele>
        <time>2023-06-18T06:38:31.000Z</time>
      </trkpt>
      <trkpt lat="47.48557" lon="-0.29508">
        <ele>33.5</ele>
        <time>2023-06-18T06:38:35.000Z</time>
      </trkpt>
      <trkpt lat="47.4866" lon="-0.29506">
        <ele>34.8</ele>
        <time>2023-06-18T06:38:53.000Z</time>
      </trkpt>
      <trkpt lat="47.48758" lon="-0.29471">
        <ele>37.4</ele>
        <time>2023-06-18T06:39:11.000Z</time>
      </trkpt>
      <trkpt lat="47.48798" lon="-0.29452">
        <ele>39.5</ele>
        <time>2023-06-18T06:39:19.000Z</time>
      </trkpt>
      <trkpt lat="47.48825" lon="-0.29405">
        <ele>40</ele>
        <time>2023-06-18T06:39:27.000Z</time>
      </trkpt>
      <trkpt lat="47.48833" lon="-0.29396">
        <ele>40</ele>
        <time>2023-06-18T06:39:29.000Z</time>
      </trkpt>
      <trkpt lat="47.48879" lon="-0.29369">
        <ele>37.9</ele>
        <time>2023-06-18T06:39:37.000Z</time>
      </trkpt>
      <trkpt lat="47.48976" lon="-0.29295">
        <ele>33.3</ele>
        <time>2023-06-18T06:39:51.000Z</time>
      </trkpt>
      <trkpt lat="47.49021" lon="-0.29245">
        <ele>35.3</ele>
        <time>2023-06-18T06:39:59.000Z</time>
      </trkpt>
      <trkpt lat="47.49039" lon="-0.29219">
        <ele>36.7</ele>
        <time>2023-06-18T06:40:03.000Z</time>
      </trkpt>
      <trkpt lat="47.49065" lon="-0.2916">
        <ele>37.7</ele>
        <time>2023-06-18T06:40:11.000Z</time>
      </trkpt>
      <trkpt lat="47.4907" lon="-0.29101">
        <ele>38.7</ele>
        <time>2023-06-18T06:40:19.000Z</time>
      </trkpt>
      <trkpt lat="47.49069" lon="-0.29057">
        <ele>39</ele>
        <time>2023-06-18T06:40:25.000Z</time>
      </trkpt>
      <trkpt lat="47.49063" lon="-0.29013">
        <ele>39.3</ele>
        <time>2023-06-18T06:40:31.000Z</time>
      </trkpt>
      <trkpt lat="47.4904" lon="-0.28898">
        <ele>39.4</ele>
        <time>2023-06-18T06:40:47.000Z</time>
      </trkpt>
      <trkpt lat="47.4904" lon="-0.28855">
        <ele>39.9</ele>
        <time>2023-06-18T06:40:53.000Z</time>
      </trkpt>
      <trkpt lat="47.49053" lon="-0.28836">
        <ele>39.9</ele>
        <time>2023-06-18T06:40:57.000Z</time>
      </trkpt>
      <trkpt lat="47.49114" lon="-0.28803">
        <ele>40</ele>
        <time>2023-06-18T06:41:11.000Z</time>
      </trkpt>
      <trkpt lat="47.49154" lon="-0.28773">
        <ele>40.5</ele>
        <time>2023-06-18T06:41:21.000Z</time>
      </trkpt>
      <trkpt lat="47.49167" lon="-0.28758">
        <ele>41</ele>
        <time>2023-06-18T06:41:25.000Z</time>
      </trkpt>
      <trkpt lat="47.49169" lon="-0.28736">
        <ele>40.6</ele>
        <time>2023-06-18T06:41:29.000Z</time>
      </trkpt>
      <trkpt lat="47.49164" lon="-0.28679">
        <ele>40</ele>
        <time>2023-06-18T06:41:37.000Z</time>
      </trkpt>
      <trkpt lat="47.49164" lon="-0.28651">
        <ele>40</ele>
        <time>2023-06-18T06:41:41.000Z</time>
      </trkpt>
      <trkpt lat="47.49178" lon="-0.28524">
        <ele>38.9</ele>
        <time>2023-06-18T06:42:01.000Z</time>
      </trkpt>
      <trkpt lat="47.49174" lon="-0.28475">
        <ele>38</ele>
        <time>2023-06-18T06:42:09.000Z</time>
      </trkpt>
      <trkpt lat="47.49176" lon="-0.28467">
        <ele>38.1</ele>
        <time>2023-06-18T06:42:11.000Z</time>
      </trkpt>
      <trkpt lat="47.49242" lon="-0.28423">
        <ele>37.9</ele>
        <time>2023-06-18T06:42:31.000Z</time>
      </trkpt>
      <trkpt lat="47.49266" lon="-0.28394">
        <ele>38</ele>
        <time>2023-06-18T06:42:37.000Z</time>
      </trkpt>
      <trkpt lat="47.49313" lon="-0.2832">
        <ele>38</ele>
        <time>2023-06-18T06:42:49.000Z</time>
      </trkpt>
      <trkpt lat="47.49349" lon="-0.28277">
        <ele>38</ele>
        <time>2023-06-18T06:42:59.000Z</time>
      </trkpt>
      <trkpt lat="47.49373" lon="-0.28263">
        <ele>38.2</ele>
        <time>2023-06-18T06:43:05.000Z</time>
      </trkpt>
      <trkpt lat="47.49439" lon="-0.28213">
        <ele>39</ele>
        <time>2023-06-18T06:43:23.000Z</time>
      </trkpt>
      <trkpt lat="47.49447" lon="-0.28211">
        <ele>38.9</ele>
        <time>2023-06-18T06:43:25.000Z</time>
      </trkpt>
      <trkpt lat="47.49454" lon="-0.28216">
        <ele>38.7</ele>
        <time>2023-06-18T06:43:27.000Z</time>
      </trkpt>
      <trkpt lat="47.49459" lon="-0.28226">
        <ele>38.5</ele>
        <time>2023-06-18T06:43:29.000Z</time>
      </trkpt>
      <trkpt lat="47.49465" lon="-0.28252">
        <ele>38.7</ele>
        <time>2023-06-18T06:43:33.000Z</time>
      </trkpt>
      <trkpt lat="47.49475" lon="-0.28274">
        <ele>39</ele>
        <time>2023-06-18T06:43:37.000Z</time>
      </trkpt>
      <trkpt lat="47.4954" lon="-0.2837">
        <ele>39.6</ele>
        <time>2023-06-18T06:43:59.000Z</time>
      </trkpt>
      <trkpt lat="47.4959" lon="-0.28461">
        <ele>40.6</ele>
        <time>2023-06-18T06:44:17.000Z</time>
      </trkpt>
      <trkpt lat="47.49624" lon="-0.28496">
        <ele>40.9</ele>
        <time>2023-06-18T06:44:25.000Z</time>
      </trkpt>
      <trkpt lat="47.49637" lon="-0.28518">
        <ele>41</ele>
        <time>2023-06-18T06:44:29.000Z</time>
      </trkpt>
      <trkpt lat="47.49644" lon="-0.28521">
        <ele>41</ele>
        <time>2023-06-18T06:44:31.000Z</time>
      </trkpt>
      <trkpt lat="47.49658" lon="-0.28506">
        <ele>41</ele>
        <time>2023-06-18T06:44:35.000Z</time>
      </trkpt>
      <trkpt lat="47.4966" lon="-0.28467">
        <ele>40.7</ele>
        <time>2023-06-18T06:44:43.000Z</time>
      </trkpt>
      <trkpt lat="47.49663" lon="-0.28459">
        <ele>40.9</ele>
        <time>2023-06-18T06:44:45.000Z</time>
      </trkpt>
      <trkpt lat="47.49725" lon="-0.2844">
        <ele>41</ele>
        <time>2023-06-18T06:44:59.000Z</time>
      </trkpt>
      <trkpt lat="47.49732" lon="-0.28434">
        <ele>41</ele>
        <time>2023-06-18T06:45:01.000Z</time>
      </trkpt>
      <trkpt lat="47.49735" lon="-0.28424">
        <ele>41</ele>
        <time>2023-06-18T06:45:03.000Z</time>
      </trkpt>
      <trkpt lat="47.49718" lon="-0.28275">
        <ele>42</ele>
        <time>2023-06-18T06:45:27.000Z</time>
      </trkpt>
      <trkpt lat="47.49709" lon="-0.28172">
        <ele>41.1</ele>
        <time>2023-06-18T06:45:41.000Z</time>
      </trkpt>
      <trkpt lat="47.4971" lon="-0.28156">
        <ele>41</ele>
        <time>2023-06-18T06:45:43.000Z</time>
      </trkpt>
      <trkpt lat="47.49714" lon="-0.28144">
        <ele>41</ele>
        <time>2023-06-18T06:45:45.000Z</time>
      </trkpt>
      <trkpt lat="47.49745" lon="-0.28117">
        <ele>41</ele>
        <time>2023-06-18T06:45:53.000Z</time>
      </trkpt>
      <trkpt lat="47.49785" lon="-0.28088">
        <ele>41.4</ele>
        <time>2023-06-18T06:46:03.000Z</time>
      </trkpt>
      <trkpt lat="47.49834" lon="-0.28063">
        <ele>41.3</ele>
        <time>2023-06-18T06:46:13.000Z</time>
      </trkpt>
      <trkpt lat="47.49843" lon="-0.2806">
        <ele>41.4</ele>
        <time>2023-06-18T06:46:15.000Z</time>
      </trkpt>
      <trkpt lat="47.49852" lon="-0.28061">
        <ele>41.8</ele>
        <time>2023-06-18T06:46:17.000Z</time>
      </trkpt>
      <trkpt lat="47.49868" lon="-0.28077">
        <ele>42</ele>
        <time>2023-06-18T06:46:21.000Z</time>
      </trkpt>
      <trkpt lat="47.49888" lon="-0.28111">
        <ele>42</ele>
        <time>2023-06-18T06:46:29.000Z</time>
      </trkpt>
      <trkpt lat="47.4992" lon="-0.28152">
        <ele>42.1</ele>
        <time>2023-06-18T06:46:39.000Z</time>
      </trkpt>
      <trkpt lat="47.50018" lon="-0.28272">
        <ele>43.6</ele>
        <time>2023-06-18T06:47:11.000Z</time>
      </trkpt>
      <trkpt lat="47.50021" lon="-0.28288">
        <ele>43.8</ele>
        <time>2023-06-18T06:47:15.000Z</time>
      </trkpt>
      <trkpt lat="47.50011" lon="-0.28464">
        <ele>45.9</ele>
        <time>2023-06-18T06:47:45.000Z</time>
      </trkpt>
      <trkpt lat="47.50014" lon="-0.28473">
        <ele>46</ele>
        <time>2023-06-18T06:47:47.000Z</time>
      </trkpt>
      <trkpt lat="47.50019" lon="-0.28476">
        <ele>46.4</ele>
        <time>2023-06-18T06:47:49.000Z</time>
      </trkpt>
      <trkpt lat="47.50024" lon="-0.28473">
        <ele>46.8</ele>
        <time>2023-06-18T06:47:51.000Z</time>
      </trkpt>
      <trkpt lat="47.50029" lon="-0.28454">
        <ele>47.6</ele>
        <time>2023-06-18T06:47:55.000Z</time>
      </trkpt>
      <trkpt lat="47.50077" lon="-0.28097">
        <ele>45.9</ele>
        <time>2023-06-18T06:48:49.000Z</time>
      </trkpt>
      <trkpt lat="47.50074" lon="-0.28007">
        <ele>43.8</ele>
        <time>2023-06-18T06:48:59.000Z</time>
      </trkpt>
      <trkpt lat="47.50056" lon="-0.27913">
        <ele>43.8</ele>
        <time>2023-06-18T06:49:09.000Z</time>
      </trkpt>
      <trkpt lat="47.5005" lon="-0.2786">
        <ele>42.8</ele>
        <time>2023-06-18T06:49:15.000Z</time>
      </trkpt>
      <trkpt lat="47.50052" lon="-0.27577">
        <ele>47.2</ele>
        <time>2023-06-18T06:49:55.000Z</time>
      </trkpt>
      <trkpt lat="47.50035" lon="-0.275">
        <ele>49.3</ele>
        <time>2023-06-18T06:50:09.000Z</time>
      </trkpt>
      <trkpt lat="47.49981" lon="-0.27289">
        <ele>56.9</ele>
        <time>2023-06-18T06:50:49.000Z</time>
      </trkpt>
      <trkpt lat="47.49927" lon="-0.27098">
        <ele>63.3</ele>
        <time>2023-06-18T06:51:27.000Z</time>
      </trkpt>
      <trkpt lat="47.49927" lon="-0.27082">
        <ele>64.1</ele>
        <time>2023-06-18T06:51:31.000Z</time>
      </trkpt>
      <trkpt lat="47.49932" lon="-0.27077">
        <ele>64.3</ele>
        <time>2023-06-18T06:51:33.000Z</time>
      </trkpt>
      <trkpt lat="47.49975" lon="-0.27065">
        <ele>65.2</ele>
        <time>2023-06-18T06:51:43.000Z</time>
      </trkpt>
      <trkpt lat="47.50031" lon="-0.27013">
        <ele>64.9</ele>
        <time>2023-06-18T06:51:57.000Z</time>
      </trkpt>
      <trkpt lat="47.50077" lon="-0.26979">
        <ele>64.2</ele>
        <time>2023-06-18T06:52:07.000Z</time>
      </trkpt>
      <trkpt lat="47.50083" lon="-0.26966">
        <ele>64.3</ele>
        <time>2023-06-18T06:52:09.000Z</time>
      </trkpt>
      <trkpt lat="47.50085" lon="-0.2695">
        <ele>64.7</ele>
        <time>2023-06-18T06:52:11.000Z</time>
      </trkpt>
      <trkpt lat="47.50086" lon="-0.26899">
        <ele>65.5</ele>
        <time>2023-06-18T06:52:17.000Z</time>
      </trkpt>
      <trkpt lat="47.50092" lon="-0.26856">
        <ele>66.5</ele>
        <time>2023-06-18T06:52:23.000Z</time>
      </trkpt>
      <trkpt lat="47.50116" lon="-0.26779">
        <ele>66.7</ele>
        <time>2023-06-18T06:52:35.000Z</time>
      </trkpt>
      <trkpt lat="47.50158" lon="-0.26607">
        <ele>69.7</ele>
        <time>2023-06-18T06:53:01.000Z</time>
      </trkpt>
      <trkpt lat="47.50165" lon="-0.26594">
        <ele>68.9</ele>
        <time>2023-06-18T06:53:03.000Z</time>
      </trkpt>
      <trkpt lat="47.50186" lon="-0.26574">
        <ele>67.3</ele>
        <time>2023-06-18T06:53:07.000Z</time>
      </trkpt>
      <trkpt lat="47.50261" lon="-0.26535">
        <ele>66.7</ele>
        <time>2023-06-18T06:53:19.000Z</time>
      </trkpt>
      <trkpt lat="47.50279" lon="-0.26517">
        <ele>67.4</ele>
        <time>2023-06-18T06:53:23.000Z</time>
      </trkpt>
      <trkpt lat="47.50293" lon="-0.26492">
        <ele>68.1</ele>
        <time>2023-06-18T06:53:27.000Z</time>
      </trkpt>
      <trkpt lat="47.50314" lon="-0.26402">
        <ele>70.2</ele>
        <time>2023-06-18T06:53:39.000Z</time>
      </trkpt>
      <trkpt lat="47.5033" lon="-0.26346">
        <ele>70.7</ele>
        <time>2023-06-18T06:53:47.000Z</time>
      </trkpt>
      <trkpt lat="47.50342" lon="-0.26317">
        <ele>70.3</ele>
        <time>2023-06-18T06:53:51.000Z</time>
      </trkpt>
      <trkpt lat="47.50491" lon="-0.26118">
        <ele>69.1</ele>
        <time>2023-06-18T06:54:25.000Z</time>
      </trkpt>
      <trkpt lat="47.50511" lon="-0.26099">
        <ele>69.4</ele>
        <time>2023-06-18T06:54:29.000Z</time>
      </trkpt>
      <trkpt lat="47.50569" lon="-0.26062">
        <ele>69.3</ele>
        <time>2023-06-18T06:54:41.000Z</time>
      </trkpt>
      <trkpt lat="47.50584" lon="-0.26046">
        <ele>69.7</ele>
        <time>2023-06-18T06:54:45.000Z</time>
      </trkpt>
      <trkpt lat="47.50603" lon="-0.26017">
        <ele>71.7</ele>
        <time>2023-06-18T06:54:51.000Z</time>
      </trkpt>
      <trkpt lat="47.50695" lon="-0.25841">
        <ele>81.7</ele>
        <time>2023-06-18T06:55:31.000Z</time>
      </trkpt>
      <trkpt lat="47.50757" lon="-0.25741">
        <ele>82.5</ele>
        <time>2023-06-18T06:55:53.000Z</time>
      </trkpt>
      <trkpt lat="47.50779" lon="-0.25687">
        <ele>80.7</ele>
        <time>2023-06-18T06:55:59.000Z</time>
      </trkpt>
      <trkpt lat="47.50786" lon="-0.25686">
        <ele>80.5</ele>
        <time>2023-06-18T06:56:01.000Z</time>
      </trkpt>
      <trkpt lat="47.50793" lon="-0.2569">
        <ele>80.4</ele>
        <time>2023-06-18T06:56:03.000Z</time>
      </trkpt>
      <trkpt lat="47.50811" lon="-0.25719">
        <ele>80.9</ele>
        <time>2023-06-18T06:56:09.000Z</time>
      </trkpt>
      <trkpt lat="47.50838" lon="-0.25741">
        <ele>81.7</ele>
        <time>2023-06-18T06:56:15.000Z</time>
      </trkpt>
      <trkpt lat="47.50882" lon="-0.25791">
        <ele>82.9</ele>
        <time>2023-06-18T06:56:27.000Z</time>
      </trkpt>
      <trkpt lat="47.50907" lon="-0.25814">
        <ele>82.9</ele>
        <time>2023-06-18T06:56:33.000Z</time>
      </trkpt>
      <trkpt lat="47.50961" lon="-0.25879">
        <ele>82.7</ele>
        <time>2023-06-18T06:56:47.000Z</time>
      </trkpt>
      <trkpt lat="47.51054" lon="-0.25976">
        <ele>84</ele>
        <time>2023-06-18T06:57:09.000Z</time>
      </trkpt>
      <trkpt lat="47.51104" lon="-0.26022">
        <ele>83.2</ele>
        <time>2023-06-18T06:57:19.000Z</time>
      </trkpt>
      <trkpt lat="47.51185" lon="-0.2611">
        <ele>78.6</ele>
        <time>2023-06-18T06:57:35.000Z</time>
      </trkpt>
      <trkpt lat="47.51192" lon="-0.26123">
        <ele>79</ele>
        <time>2023-06-18T06:57:37.000Z</time>
      </trkpt>
      <trkpt lat="47.51194" lon="-0.26138">
        <ele>80</ele>
        <time>2023-06-18T06:57:39.000Z</time>
      </trkpt>
      <trkpt lat="47.51157" lon="-0.26358">
        <ele>83.6</ele>
        <time>2023-06-18T06:58:09.000Z</time>
      </trkpt>
      <trkpt lat="47.51153" lon="-0.26413">
        <ele>83.5</ele>
        <time>2023-06-18T06:58:15.000Z</time>
      </trkpt>
      <trkpt lat="47.51145" lon="-0.26475">
        <ele>81.2</ele>
        <time>2023-06-18T06:58:23.000Z</time>
      </trkpt>
      <trkpt lat="47.51145" lon="-0.26518">
        <ele>78.3</ele>
        <time>2023-06-18T06:58:27.000Z</time>
      </trkpt>
      <trkpt lat="47.51152" lon="-0.26573">
        <ele>73.7</ele>
        <time>2023-06-18T06:58:31.000Z</time>
      </trkpt>
      <trkpt lat="47.5116" lon="-0.26599">
        <ele>72.4</ele>
        <time>2023-06-18T06:58:33.000Z</time>
      </trkpt>
      <trkpt lat="47.5117" lon="-0.2662">
        <ele>71.9</ele>
        <time>2023-06-18T06:58:35.000Z</time>
      </trkpt>
      <trkpt lat="47.51193" lon="-0.26654">
        <ele>73.3</ele>
        <time>2023-06-18T06:58:39.000Z</time>
      </trkpt>
      <trkpt lat="47.51216" lon="-0.2673">
        <ele>73.1</ele>
        <time>2023-06-18T06:58:47.000Z</time>
      </trkpt>
      <trkpt lat="47.51228" lon="-0.2681">
        <ele>71</ele>
        <time>2023-06-18T06:58:55.000Z</time>
      </trkpt>
      <trkpt lat="47.51228" lon="-0.26831">
        <ele>71</ele>
        <time>2023-06-18T06:58:57.000Z</time>
      </trkpt>
      <trkpt lat="47.51216" lon="-0.26893">
        <ele>69.7</ele>
        <time>2023-06-18T06:59:03.000Z</time>
      </trkpt>
      <trkpt lat="47.51219" lon="-0.26959">
        <ele>68.5</ele>
        <time>2023-06-18T06:59:09.000Z</time>
      </trkpt>
      <trkpt lat="47.51215" lon="-0.26982">
        <ele>68</ele>
        <time>2023-06-18T06:59:11.000Z</time>
      </trkpt>
      <trkpt lat="47.51207" lon="-0.26998">
        <ele>68</ele>
        <time>2023-06-18T06:59:13.000Z</time>
      </trkpt>
      <trkpt lat="47.51193" lon="-0.27007">
        <ele>68</ele>
        <time>2023-06-18T06:59:15.000Z</time>
      </trkpt>
      <trkpt lat="47.51152" lon="-0.27017">
        <ele>67.2</ele>
        <time>2023-06-18T06:59:21.000Z</time>
      </trkpt>
      <trkpt lat="47.51142" lon="-0.27028">
        <ele>66.2</ele>
        <time>2023-06-18T06:59:23.000Z</time>
      </trkpt>
      <trkpt lat="47.51119" lon="-0.271">
        <ele>65.5</ele>
        <time>2023-06-18T06:59:31.000Z</time>
      </trkpt>
      <trkpt lat="47.51089" lon="-0.27139">
        <ele>64.5</ele>
        <time>2023-06-18T06:59:37.000Z</time>
      </trkpt>
      <trkpt lat="47.5107" lon="-0.27171">
        <ele>63.7</ele>
        <time>2023-06-18T06:59:41.000Z</time>
      </trkpt>
      <trkpt lat="47.51005" lon="-0.27295">
        <ele>60.9</ele>
        <time>2023-06-18T06:59:55.000Z</time>
      </trkpt>
      <trkpt lat="47.50992" lon="-0.2733">
        <ele>62.6</ele>
        <time>2023-06-18T06:59:59.000Z</time>
      </trkpt>
      <trkpt lat="47.50994" lon="-0.27345">
        <ele>63.3</ele>
        <time>2023-06-18T07:00:01.000Z</time>
      </trkpt>
      <trkpt lat="47.51" lon="-0.27359">
        <ele>64</ele>
        <time>2023-06-18T07:00:03.000Z</time>
      </trkpt>
      <trkpt lat="47.5103" lon="-0.27401">
        <ele>67</ele>
        <time>2023-06-18T07:00:11.000Z</time>
      </trkpt>
      <trkpt lat="47.51066" lon="-0.27464">
        <ele>67</ele>
        <time>2023-06-18T07:00:21.000Z</time>
      </trkpt>
      <trkpt lat="47.51095" lon="-0.2755">
        <ele>67</ele>
        <time>2023-06-18T07:00:31.000Z</time>
      </trkpt>
      <trkpt lat="47.51125" lon="-0.27612">
        <ele>68</ele>
        <time>2023-06-18T07:00:39.000Z</time>
      </trkpt>
      <trkpt lat="47.5113" lon="-0.27628">
        <ele>68</ele>
        <time>2023-06-18T07:00:41.000Z</time>
      </trkpt>
      <trkpt lat="47.51128" lon="-0.2764">
        <ele>68</ele>
        <time>2023-06-18T07:00:43.000Z</time>
      </trkpt>
      <trkpt lat="47.5112" lon="-0.2765">
        <ele>68</ele>
        <time>2023-06-18T07:00:45.000Z</time>
      </trkpt>
      <trkpt lat="47.50967" lon="-0.27734">
        <ele>67.9</ele>
        <time>2023-06-18T07:01:11.000Z</time>
      </trkpt>
      <trkpt lat="47.50928" lon="-0.27744">
        <ele>65.4</ele>
        <time>2023-06-18T07:01:17.000Z</time>
      </trkpt>
      <trkpt lat="47.50904" lon="-0.27737">
        <ele>63.1</ele>
        <time>2023-06-18T07:01:21.000Z</time>
      </trkpt>
      <trkpt lat="47.50897" lon="-0.27726">
        <ele>62.8</ele>
        <time>2023-06-18T07:01:23.000Z</time>
      </trkpt>
      <trkpt lat="47.50891" lon="-0.27667">
        <ele>64.2</ele>
        <time>2023-06-18T07:01:31.000Z</time>
      </trkpt>
      <trkpt lat="47.50886" lon="-0.27653">
        <ele>63.7</ele>
        <time>2023-06-18T07:01:33.000Z</time>
      </trkpt>
      <trkpt lat="47.50877" lon="-0.27641">
        <ele>62.7</ele>
        <time>2023-06-18T07:01:35.000Z</time>
      </trkpt>
      <trkpt lat="47.50863" lon="-0.27633">
        <ele>61.2</ele>
        <time>2023-06-18T07:01:37.000Z</time>
      </trkpt>
      <trkpt lat="47.50817" lon="-0.27619">
        <ele>57.8</ele>
        <time>2023-06-18T07:01:43.000Z</time>
      </trkpt>
      <trkpt lat="47.50802" lon="-0.27619">
        <ele>56.8</ele>
        <time>2023-06-18T07:01:45.000Z</time>
      </trkpt>
      <trkpt lat="47.5079" lon="-0.27627">
        <ele>56.2</ele>
        <time>2023-06-18T07:01:47.000Z</time>
      </trkpt>
      <trkpt lat="47.5078" lon="-0.2764">
        <ele>56.1</ele>
        <time>2023-06-18T07:01:49.000Z</time>
      </trkpt>
      <trkpt lat="47.50774" lon="-0.27658">
        <ele>55.7</ele>
        <time>2023-06-18T07:01:51.000Z</time>
      </trkpt>
      <trkpt lat="47.50738" lon="-0.27849">
        <ele>53.8</ele>
        <time>2023-06-18T07:02:09.000Z</time>
      </trkpt>
      <trkpt lat="47.50703" lon="-0.27979">
        <ele>52.2</ele>
        <time>2023-06-18T07:02:21.000Z</time>
      </trkpt>
      <trkpt lat="47.50681" lon="-0.28043">
        <ele>51.5</ele>
        <time>2023-06-18T07:02:27.000Z</time>
      </trkpt>
      <trkpt lat="47.5063" lon="-0.28155">
        <ele>51.3</ele>
        <time>2023-06-18T07:02:39.000Z</time>
      </trkpt>
      <trkpt lat="47.50619" lon="-0.28171">
        <ele>51.1</ele>
        <time>2023-06-18T07:02:41.000Z</time>
      </trkpt>
      <trkpt lat="47.50589" lon="-0.28191">
        <ele>51.3</ele>
        <time>2023-06-18T07:02:45.000Z</time>
      </trkpt>
      <trkpt lat="47.50565" lon="-0.28182">
        <ele>51.4</ele>
        <time>2023-06-18T07:02:49.000Z</time>
      </trkpt>
      <trkpt lat="47.50554" lon="-0.28174">
        <ele>51.7</ele>
        <time>2023-06-18T07:02:51.000Z</time>
      </trkpt>
      <trkpt lat="47.505" lon="-0.28176">
        <ele>50.3</ele>
        <time>2023-06-18T07:02:59.000Z</time>
      </trkpt>
      <trkpt lat="47.50439" lon="-0.2816">
        <ele>47</ele>
        <time>2023-06-18T07:03:07.000Z</time>
      </trkpt>
      <trkpt lat="47.50423" lon="-0.28162">
        <ele>46.9</ele>
        <time>2023-06-18T07:03:09.000Z</time>
      </trkpt>
      <trkpt lat="47.50409" lon="-0.28171">
        <ele>46.5</ele>
        <time>2023-06-18T07:03:11.000Z</time>
      </trkpt>
      <trkpt lat="47.504" lon="-0.28188">
        <ele>46.2</ele>
        <time>2023-06-18T07:03:13.000Z</time>
      </trkpt>
      <trkpt lat="47.50395" lon="-0.2821">
        <ele>46.2</ele>
        <time>2023-06-18T07:03:15.000Z</time>
      </trkpt>
      <trkpt lat="47.50388" lon="-0.28265">
        <ele>46.5</ele>
        <time>2023-06-18T07:03:21.000Z</time>
      </trkpt>
      <trkpt lat="47.50389" lon="-0.28281">
        <ele>46.9</ele>
        <time>2023-06-18T07:03:23.000Z</time>
      </trkpt>
      <trkpt lat="47.50423" lon="-0.28371">
        <ele>47.8</ele>
        <time>2023-06-18T07:03:35.000Z</time>
      </trkpt>
      <trkpt lat="47.50457" lon="-0.28419">
        <ele>49.4</ele>
        <time>2023-06-18T07:03:43.000Z</time>
      </trkpt>
      <trkpt lat="47.50525" lon="-0.28482">
        <ele>51.9</ele>
        <time>2023-06-18T07:03:57.000Z</time>
      </trkpt>
      <trkpt lat="47.50544" lon="-0.28493">
        <ele>52</ele>
        <time>2023-06-18T07:04:01.000Z</time>
      </trkpt>
      <trkpt lat="47.50566" lon="-0.28485">
        <ele>52</ele>
        <time>2023-06-18T07:04:05.000Z</time>
      </trkpt>
      <trkpt lat="47.5061" lon="-0.28452">
        <ele>51.8</ele>
        <time>2023-06-18T07:04:13.000Z</time>
      </trkpt>
      <trkpt lat="47.50662" lon="-0.28423">
        <ele>50.2</ele>
        <time>2023-06-18T07:04:21.000Z</time>
      </trkpt>
      <trkpt lat="47.5078" lon="-0.28346">
        <ele>47.5</ele>
        <time>2023-06-18T07:04:37.000Z</time>
      </trkpt>
      <trkpt lat="47.50848" lon="-0.28296">
        <ele>48.2</ele>
        <time>2023-06-18T07:04:47.000Z</time>
      </trkpt>
      <trkpt lat="47.50875" lon="-0.28289">
        <ele>48.8</ele>
        <time>2023-06-18T07:04:51.000Z</time>
      </trkpt>
      <trkpt lat="47.50885" lon="-0.28297">
        <ele>48.9</ele>
        <time>2023-06-18T07:04:53.000Z</time>
      </trkpt>
      <trkpt lat="47.50893" lon="-0.28312">
        <ele>48.8</ele>
        <time>2023-06-18T07:04:55.000Z</time>
      </trkpt>
      <trkpt lat="47.50937" lon="-0.28451">
        <ele>46</ele>
        <time>2023-06-18T07:05:09.000Z</time>
      </trkpt>
      <trkpt lat="47.50963" lon="-0.28511">
        <ele>45.2</ele>
        <time>2023-06-18T07:05:15.000Z</time>
      </trkpt>
      <trkpt lat="47.50997" lon="-0.28573">
        <ele>44</ele>
        <time>2023-06-18T07:05:23.000Z</time>
      </trkpt>
      <trkpt lat="47.51007" lon="-0.28597">
        <ele>44</ele>
        <time>2023-06-18T07:05:27.000Z</time>
      </trkpt>
      <trkpt lat="47.51007" lon="-0.28606">
        <ele>43.8</ele>
        <time>2023-06-18T07:05:29.000Z</time>
      </trkpt>
      <trkpt lat="47.51002" lon="-0.28613">
        <ele>43.9</ele>
        <time>2023-06-18T07:05:31.000Z</time>
      </trkpt>
      <trkpt lat="47.50916" lon="-0.28663">
        <ele>45.9</ele>
        <time>2023-06-18T07:05:47.000Z</time>
      </trkpt>
      <trkpt lat="47.50884" lon="-0.28676">
        <ele>46.1</ele>
        <time>2023-06-18T07:05:53.000Z</time>
      </trkpt>
      <trkpt lat="47.50827" lon="-0.28733">
        <ele>47.2</ele>
        <time>2023-06-18T07:06:05.000Z</time>
      </trkpt>
      <trkpt lat="47.50761" lon="-0.28825">
        <ele>47.3</ele>
        <time>2023-06-18T07:06:21.000Z</time>
      </trkpt>
      <trkpt lat="47.50652" lon="-0.29004">
        <ele>49.6</ele>
        <time>2023-06-18T07:06:51.000Z</time>
      </trkpt>
      <trkpt lat="47.50618" lon="-0.29028">
        <ele>50</ele>
        <time>2023-06-18T07:06:57.000Z</time>
      </trkpt>
      <trkpt lat="47.50573" lon="-0.2904">
        <ele>50.3</ele>
        <time>2023-06-18T07:07:05.000Z</time>
      </trkpt>
      <trkpt lat="47.50562" lon="-0.29045">
        <ele>50.2</ele>
        <time>2023-06-18T07:07:07.000Z</time>
      </trkpt>
      <trkpt lat="47.50544" lon="-0.29061">
        <ele>50.2</ele>
        <time>2023-06-18T07:07:11.000Z</time>
      </trkpt>
      <trkpt lat="47.50546" lon="-0.2907">
        <ele>49.9</ele>
        <time>2023-06-18T07:07:13.000Z</time>
      </trkpt>
      <trkpt lat="47.50567" lon="-0.29075">
        <ele>49.2</ele>
        <time>2023-06-18T07:07:17.000Z</time>
      </trkpt>
      <trkpt lat="47.50674" lon="-0.29043">
        <ele>46.2</ele>
        <time>2023-06-18T07:07:33.000Z</time>
      </trkpt>
      <trkpt lat="47.50685" lon="-0.29043">
        <ele>45.8</ele>
        <time>2023-06-18T07:07:35.000Z</time>
      </trkpt>
      <trkpt lat="47.50695" lon="-0.2905">
        <ele>45.2</ele>
        <time>2023-06-18T07:07:37.000Z</time>
      </trkpt>
      <trkpt lat="47.50702" lon="-0.29064">
        <ele>44.9</ele>
        <time>2023-06-18T07:07:39.000Z</time>
      </trkpt>
      <trkpt lat="47.50717" lon="-0.29114">
        <ele>44.2</ele>
        <time>2023-06-18T07:07:45.000Z</time>
      </trkpt>
      <trkpt lat="47.50734" lon="-0.29201">
        <ele>43.6</ele>
        <time>2023-06-18T07:07:55.000Z</time>
      </trkpt>
      <trkpt lat="47.50763" lon="-0.29271">
        <ele>43.4</ele>
        <time>2023-06-18T07:08:05.000Z</time>
      </trkpt>
      <trkpt lat="47.50776" lon="-0.29327">
        <ele>43.1</ele>
        <time>2023-06-18T07:08:11.000Z</time>
      </trkpt>
      <trkpt lat="47.5078" lon="-0.29364">
        <ele>42.9</ele>
        <time>2023-06-18T07:08:15.000Z</time>
      </trkpt>
      <trkpt lat="47.50776" lon="-0.29433">
        <ele>42</ele>
        <time>2023-06-18T07:08:23.000Z</time>
      </trkpt>
      <trkpt lat="47.5077" lon="-0.29471">
        <ele>42</ele>
        <time>2023-06-18T07:08:27.000Z</time>
      </trkpt>
      <trkpt lat="47.50758" lon="-0.29519">
        <ele>41.3</ele>
        <time>2023-06-18T07:08:33.000Z</time>
      </trkpt>
      <trkpt lat="47.50723" lon="-0.29623">
        <ele>40</ele>
        <time>2023-06-18T07:08:45.000Z</time>
      </trkpt>
      <trkpt lat="47.50721" lon="-0.29641">
        <ele>40</ele>
        <time>2023-06-18T07:08:47.000Z</time>
      </trkpt>
      <trkpt lat="47.50707" lon="-0.29692">
        <ele>40</ele>
        <time>2023-06-18T07:08:53.000Z</time>
      </trkpt>
      <trkpt lat="47.50702" lon="-0.29789">
        <ele>38.6</ele>
        <time>2023-06-18T07:09:03.000Z</time>
      </trkpt>
      <trkpt lat="47.50695" lon="-0.29828">
        <ele>38</ele>
        <time>2023-06-18T07:09:07.000Z</time>
      </trkpt>
      <trkpt lat="47.50666" lon="-0.29883">
        <ele>37.2</ele>
        <time>2023-06-18T07:09:13.000Z</time>
      </trkpt>
      <trkpt lat="47.50653" lon="-0.29916">
        <ele>36.5</ele>
        <time>2023-06-18T07:09:17.000Z</time>
      </trkpt>
      <trkpt lat="47.50637" lon="-0.29939">
        <ele>37.1</ele>
        <time>2023-06-18T07:09:21.000Z</time>
      </trkpt>
      <trkpt lat="47.50593" lon="-0.29958">
        <ele>38.3</ele>
        <time>2023-06-18T07:09:31.000Z</time>
      </trkpt>
      <trkpt lat="47.50558" lon="-0.29995">
        <ele>39.8</ele>
        <time>2023-06-18T07:09:39.000Z</time>
      </trkpt>
      <trkpt lat="47.50539" lon="-0.30007">
        <ele>40.4</ele>
        <time>2023-06-18T07:09:43.000Z</time>
      </trkpt>
      <trkpt lat="47.5046" lon="-0.30008">
        <ele>41.9</ele>
        <time>2023-06-18T07:09:57.000Z</time>
      </trkpt>
      <trkpt lat="47.50318" lon="-0.29994">
        <ele>45.8</ele>
        <time>2023-06-18T07:10:27.000Z</time>
      </trkpt>
      <trkpt lat="47.50296" lon="-0.30014">
        <ele>45.7</ele>
        <time>2023-06-18T07:10:33.000Z</time>
      </trkpt>
      <trkpt lat="47.50287" lon="-0.30017">
        <ele>45.8</ele>
        <time>2023-06-18T07:10:35.000Z</time>
      </trkpt>
      <trkpt lat="47.50197" lon="-0.29973">
        <ele>48.9</ele>
        <time>2023-06-18T07:10:55.000Z</time>
      </trkpt>
      <trkpt lat="47.50172" lon="-0.29968">
        <ele>49.8</ele>
        <time>2023-06-18T07:11:01.000Z</time>
      </trkpt>
      <trkpt lat="47.50091" lon="-0.29939">
        <ele>55.1</ele>
        <time>2023-06-18T07:11:23.000Z</time>
      </trkpt>
      <trkpt lat="47.50037" lon="-0.29932">
        <ele>58.9</ele>
        <time>2023-06-18T07:11:43.000Z</time>
      </trkpt>
      <trkpt lat="47.50026" lon="-0.29937">
        <ele>59.4</ele>
        <time>2023-06-18T07:11:47.000Z</time>
      </trkpt>
      <trkpt lat="47.50011" lon="-0.29953">
        <ele>61.2</ele>
        <time>2023-06-18T07:11:53.000Z</time>
      </trkpt>
      <trkpt lat="47.49993" lon="-0.29958">
        <ele>62.8</ele>
        <time>2023-06-18T07:11:59.000Z</time>
      </trkpt>
      <trkpt lat="47.49944" lon="-0.29946">
        <ele>66.9</ele>
        <time>2023-06-18T07:12:17.000Z</time>
      </trkpt>
      <trkpt lat="47.49935" lon="-0.29977">
        <ele>66.3</ele>
        <time>2023-06-18T07:12:29.000Z</time>
      </trkpt>
      <trkpt lat="47.49941" lon="-0.30109">
        <ele>61.1</ele>
        <time>2023-06-18T07:12:45.000Z</time>
      </trkpt>
      <trkpt lat="47.49943" lon="-0.3012">
        <ele>60.4</ele>
        <time>2023-06-18T07:12:47.000Z</time>
      </trkpt>
      <trkpt lat="47.49943" lon="-0.30145">
        <ele>58.6</ele>
        <time>2023-06-18T07:13:07.000Z</time>
      </trkpt>
      <trkpt lat="47.49942" lon="-0.3016">
        <ele>57.6</ele>
        <time>2023-06-18T07:13:09.000Z</time>
      </trkpt>
      <trkpt lat="47.49948" lon="-0.302">
        <ele>54.4</ele>
        <time>2023-06-18T07:13:15.000Z</time>
      </trkpt>
      <trkpt lat="47.49962" lon="-0.30204">
        <ele>53.7</ele>
        <time>2023-06-18T07:13:19.000Z</time>
      </trkpt>
      <trkpt lat="47.49998" lon="-0.30203">
        <ele>52.2</ele>
        <time>2023-06-18T07:13:27.000Z</time>
      </trkpt>
      <trkpt lat="47.50016" lon="-0.30216">
        <ele>50.2</ele>
        <time>2023-06-18T07:13:35.000Z</time>
      </trkpt>
      <trkpt lat="47.50061" lon="-0.30188">
        <ele>49.2</ele>
        <time>2023-06-18T07:13:47.000Z</time>
      </trkpt>
      <trkpt lat="47.50094" lon="-0.30183">
        <ele>47.8</ele>
        <time>2023-06-18T07:13:53.000Z</time>
      </trkpt>
      <trkpt lat="47.50138" lon="-0.302">
        <ele>45</ele>
        <time>2023-06-18T07:13:59.000Z</time>
      </trkpt>
      <trkpt lat="47.50199" lon="-0.30213">
        <ele>44</ele>
        <time>2023-06-18T07:14:07.000Z</time>
      </trkpt>
      <trkpt lat="47.50212" lon="-0.30222">
        <ele>42.7</ele>
        <time>2023-06-18T07:14:09.000Z</time>
      </trkpt>
      <trkpt lat="47.5022" lon="-0.30236">
        <ele>42.1</ele>
        <time>2023-06-18T07:14:11.000Z</time>
      </trkpt>
      <trkpt lat="47.50242" lon="-0.30308">
        <ele>40.5</ele>
        <time>2023-06-18T07:14:19.000Z</time>
      </trkpt>
      <trkpt lat="47.50248" lon="-0.30318">
        <ele>40.1</ele>
        <time>2023-06-18T07:14:21.000Z</time>
      </trkpt>
      <trkpt lat="47.50316" lon="-0.30348">
        <ele>39.5</ele>
        <time>2023-06-18T07:14:33.000Z</time>
      </trkpt>
      <trkpt lat="47.50365" lon="-0.30359">
        <ele>39.1</ele>
        <time>2023-06-18T07:14:41.000Z</time>
      </trkpt>
      <trkpt lat="47.5051" lon="-0.30354">
        <ele>37.7</ele>
        <time>2023-06-18T07:15:03.000Z</time>
      </trkpt>
      <trkpt lat="47.50623" lon="-0.30346">
        <ele>36.8</ele>
        <time>2023-06-18T07:15:19.000Z</time>
      </trkpt>
      <trkpt lat="47.50693" lon="-0.30326">
        <ele>36.3</ele>
        <time>2023-06-18T07:15:29.000Z</time>
      </trkpt>
      <trkpt lat="47.50813" lon="-0.30276">
        <ele>34.8</ele>
        <time>2023-06-18T07:15:45.000Z</time>
      </trkpt>
      <trkpt lat="47.50894" lon="-0.30254">
        <ele>35.1</ele>
        <time>2023-06-18T07:15:57.000Z</time>
      </trkpt>
      <trkpt lat="47.50924" lon="-0.30252">
        <ele>36</ele>
        <time>2023-06-18T07:16:03.000Z</time>
      </trkpt>
      <trkpt lat="47.50942" lon="-0.30236">
        <ele>36</ele>
        <time>2023-06-18T07:16:09.000Z</time>
      </trkpt>
      <trkpt lat="47.5096" lon="-0.30228">
        <ele>36</ele>
        <time>2023-06-18T07:16:13.000Z</time>
      </trkpt>
      <trkpt lat="47.51018" lon="-0.30222">
        <ele>36</ele>
        <time>2023-06-18T07:16:25.000Z</time>
      </trkpt>
      <trkpt lat="47.51057" lon="-0.30208">
        <ele>36</ele>
        <time>2023-06-18T07:16:33.000Z</time>
      </trkpt>
      <trkpt lat="47.51084" lon="-0.30191">
        <ele>36</ele>
        <time>2023-06-18T07:16:39.000Z</time>
      </trkpt>
      <trkpt lat="47.51093" lon="-0.3019">
        <ele>36</ele>
        <time>2023-06-18T07:16:41.000Z</time>
      </trkpt>
      <trkpt lat="47.51178" lon="-0.30197">
        <ele>35</ele>
        <time>2023-06-18T07:16:55.000Z</time>
      </trkpt>
      <trkpt lat="47.51204" lon="-0.30208">
        <ele>35.3</ele>
        <time>2023-06-18T07:16:59.000Z</time>
      </trkpt>
      <trkpt lat="47.51238" lon="-0.30231">
        <ele>35</ele>
        <time>2023-06-18T07:17:05.000Z</time>
      </trkpt>
      <trkpt lat="47.51267" lon="-0.3024">
        <ele>35</ele>
        <time>2023-06-18T07:17:11.000Z</time>
      </trkpt>
      <trkpt lat="47.51294" lon="-0.30256">
        <ele>35.5</ele>
        <time>2023-06-18T07:17:17.000Z</time>
      </trkpt>
      <trkpt lat="47.51316" lon="-0.30286">
        <ele>35</ele>
        <time>2023-06-18T07:17:23.000Z</time>
      </trkpt>
      <trkpt lat="47.51352" lon="-0.30319">
        <ele>34.3</ele>
        <time>2023-06-18T07:17:33.000Z</time>
      </trkpt>
      <trkpt lat="47.51386" lon="-0.30374">
        <ele>34</ele>
        <time>2023-06-18T07:17:43.000Z</time>
      </trkpt>
      <trkpt lat="47.51438" lon="-0.30419">
        <ele>32.9</ele>
        <time>2023-06-18T07:17:57.000Z</time>
      </trkpt>
      <trkpt lat="47.51462" lon="-0.30429">
        <ele>32.2</ele>
        <time>2023-06-18T07:18:03.000Z</time>
      </trkpt>
      <trkpt lat="47.51493" lon="-0.30478">
        <ele>31.4</ele>
        <time>2023-06-18T07:18:11.000Z</time>
      </trkpt>
      <trkpt lat="47.51535" lon="-0.30516">
        <ele>32.3</ele>
        <time>2023-06-18T07:18:23.000Z</time>
      </trkpt>
      <trkpt lat="47.51586" lon="-0.30535">
        <ele>33.1</ele>
        <time>2023-06-18T07:18:39.000Z</time>
      </trkpt>
      <trkpt lat="47.51692" lon="-0.30556">
        <ele>33.9</ele>
        <time>2023-06-18T07:18:59.000Z</time>
      </trkpt>
      <trkpt lat="47.51727" lon="-0.30557">
        <ele>34</ele>
        <time>2023-06-18T07:19:07.000Z</time>
      </trkpt>
      <trkpt lat="47.51735" lon="-0.30563">
        <ele>34</ele>
        <time>2023-06-18T07:19:09.000Z</time>
      </trkpt>
      <trkpt lat="47.51744" lon="-0.30574">
        <ele>34</ele>
        <time>2023-06-18T07:19:11.000Z</time>
      </trkpt>
      <trkpt lat="47.51769" lon="-0.30622">
        <ele>33.2</ele>
        <time>2023-06-18T07:19:17.000Z</time>
      </trkpt>
      <trkpt lat="47.51794" lon="-0.30681">
        <ele>33</ele>
        <time>2023-06-18T07:19:25.000Z</time>
      </trkpt>
      <trkpt lat="47.51816" lon="-0.30713">
        <ele>32.6</ele>
        <time>2023-06-18T07:19:31.000Z</time>
      </trkpt>
      <trkpt lat="47.51908" lon="-0.30702">
        <ele>30.3</ele>
        <time>2023-06-18T07:19:49.000Z</time>
      </trkpt>
      <trkpt lat="47.51981" lon="-0.30686">
        <ele>29</ele>
        <time>2023-06-18T07:20:01.000Z</time>
      </trkpt>
      <trkpt lat="47.51993" lon="-0.30691">
        <ele>29</ele>
        <time>2023-06-18T07:20:03.000Z</time>
      </trkpt>
      <trkpt lat="47.52022" lon="-0.30724">
        <ele>29</ele>
        <time>2023-06-18T07:20:09.000Z</time>
      </trkpt>
      <trkpt lat="47.52047" lon="-0.30739">
        <ele>29.3</ele>
        <time>2023-06-18T07:20:15.000Z</time>
      </trkpt>
      <trkpt lat="47.5209" lon="-0.30781">
        <ele>29.2</ele>
        <time>2023-06-18T07:20:25.000Z</time>
      </trkpt>
      <trkpt lat="47.52129" lon="-0.30836">
        <ele>28.4</ele>
        <time>2023-06-18T07:20:35.000Z</time>
      </trkpt>
      <trkpt lat="47.52146" lon="-0.30882">
        <ele>28.2</ele>
        <time>2023-06-18T07:20:41.000Z</time>
      </trkpt>
      <trkpt lat="47.52165" lon="-0.30911">
        <ele>28.8</ele>
        <time>2023-06-18T07:20:47.000Z</time>
      </trkpt>
      <trkpt lat="47.52172" lon="-0.30916">
        <ele>29</ele>
        <time>2023-06-18T07:20:49.000Z</time>
      </trkpt>
      <trkpt lat="47.52197" lon="-0.3091">
        <ele>29</ele>
        <time>2023-06-18T07:20:55.000Z</time>
      </trkpt>
      <trkpt lat="47.52219" lon="-0.3092">
        <ele>29</ele>
        <time>2023-06-18T07:21:01.000Z</time>
      </trkpt>
      <trkpt lat="47.52327" lon="-0.31003">
        <ele>30</ele>
        <time>2023-06-18T07:21:31.000Z</time>
      </trkpt>
      <trkpt lat="47.52341" lon="-0.31021">
        <ele>30</ele>
        <time>2023-06-18T07:21:35.000Z</time>
      </trkpt>
      <trkpt lat="47.52346" lon="-0.31036">
        <ele>29.8</ele>
        <time>2023-06-18T07:21:37.000Z</time>
      </trkpt>
      <trkpt lat="47.52345" lon="-0.31049">
        <ele>29.6</ele>
        <time>2023-06-18T07:21:39.000Z</time>
      </trkpt>
      <trkpt lat="47.52334" lon="-0.31074">
        <ele>29</ele>
        <time>2023-06-18T07:21:43.000Z</time>
      </trkpt>
      <trkpt lat="47.52332" lon="-0.31089">
        <ele>29</ele>
        <time>2023-06-18T07:21:45.000Z</time>
      </trkpt>
      <trkpt lat="47.52333" lon="-0.31106">
        <ele>29</ele>
        <time>2023-06-18T07:21:47.000Z</time>
      </trkpt>
      <trkpt lat="47.5235" lon="-0.31179">
        <ele>29.8</ele>
        <time>2023-06-18T07:21:57.000Z</time>
      </trkpt>
      <trkpt lat="47.52375" lon="-0.31233">
        <ele>30</ele>
        <time>2023-06-18T07:22:05.000Z</time>
      </trkpt>
      <trkpt lat="47.52391" lon="-0.3124">
        <ele>30.1</ele>
        <time>2023-06-18T07:22:09.000Z</time>
      </trkpt>
      <trkpt lat="47.52399" lon="-0.31235">
        <ele>30.4</ele>
        <time>2023-06-18T07:22:11.000Z</time>
      </trkpt>
      <trkpt lat="47.52458" lon="-0.3116">
        <ele>29.5</ele>
        <time>2023-06-18T07:22:27.000Z</time>
      </trkpt>
      <trkpt lat="47.52474" lon="-0.31146">
        <ele>29</ele>
        <time>2023-06-18T07:22:31.000Z</time>
      </trkpt>
      <trkpt lat="47.52496" lon="-0.31161">
        <ele>29.9</ele>
        <time>2023-06-18T07:22:37.000Z</time>
      </trkpt>
      <trkpt lat="47.52523" lon="-0.31191">
        <ele>30</ele>
        <time>2023-06-18T07:22:43.000Z</time>
      </trkpt>
      <trkpt lat="47.52546" lon="-0.31226">
        <ele>30</ele>
        <time>2023-06-18T07:22:49.000Z</time>
      </trkpt>
      <trkpt lat="47.52575" lon="-0.31295">
        <ele>30.2</ele>
        <time>2023-06-18T07:22:59.000Z</time>
      </trkpt>
      <trkpt lat="47.52627" lon="-0.3144">
        <ele>32</ele>
        <time>2023-06-18T07:23:21.000Z</time>
      </trkpt>
      <trkpt lat="47.52641" lon="-0.31463">
        <ele>32</ele>
        <time>2023-06-18T07:23:25.000Z</time>
      </trkpt>
      <trkpt lat="47.52663" lon="-0.31481">
        <ele>32</ele>
        <time>2023-06-18T07:23:31.000Z</time>
      </trkpt>
      <trkpt lat="47.52677" lon="-0.31522">
        <ele>32</ele>
        <time>2023-06-18T07:23:37.000Z</time>
      </trkpt>
      <trkpt lat="47.52684" lon="-0.31536">
        <ele>31.8</ele>
        <time>2023-06-18T07:23:39.000Z</time>
      </trkpt>
      <trkpt lat="47.52725" lon="-0.31594">
        <ele>30.9</ele>
        <time>2023-06-18T07:23:49.000Z</time>
      </trkpt>
      <trkpt lat="47.52843" lon="-0.31747">
        <ele>29</ele>
        <time>2023-06-18T07:24:15.000Z</time>
      </trkpt>
      <trkpt lat="47.52894" lon="-0.31821">
        <ele>30.1</ele>
        <time>2023-06-18T07:24:27.000Z</time>
      </trkpt>
      <trkpt lat="47.52963" lon="-0.31907">
        <ele>30</ele>
        <time>2023-06-18T07:24:43.000Z</time>
      </trkpt>
      <trkpt lat="47.53057" lon="-0.32034">
        <ele>31</ele>
        <time>2023-06-18T07:25:05.000Z</time>
      </trkpt>
      <trkpt lat="47.53102" lon="-0.32103">
        <ele>32.2</ele>
        <time>2023-06-18T07:25:17.000Z</time>
      </trkpt>
      <trkpt lat="47.53162" lon="-0.32271">
        <ele>36.5</ele>
        <time>2023-06-18T07:25:43.000Z</time>
      </trkpt>
      <trkpt lat="47.53197" lon="-0.32355">
        <ele>39.2</ele>
        <time>2023-06-18T07:25:59.000Z</time>
      </trkpt>
      <trkpt lat="47.53199" lon="-0.32376">
        <ele>39.9</ele>
        <time>2023-06-18T07:26:03.000Z</time>
      </trkpt>
      <trkpt lat="47.53188" lon="-0.32392">
        <ele>39.9</ele>
        <time>2023-06-18T07:26:07.000Z</time>
      </trkpt>
      <trkpt lat="47.53067" lon="-0.32483">
        <ele>35.6</ele>
        <time>2023-06-18T07:26:29.000Z</time>
      </trkpt>
      <trkpt lat="47.52982" lon="-0.32541">
        <ele>35.5</ele>
        <time>2023-06-18T07:26:45.000Z</time>
      </trkpt>
      <trkpt lat="47.52894" lon="-0.32593">
        <ele>36.9</ele>
        <time>2023-06-18T07:27:03.000Z</time>
      </trkpt>
      <trkpt lat="47.52784" lon="-0.32669">
        <ele>39</ele>
        <time>2023-06-18T07:27:33.000Z</time>
      </trkpt>
      <trkpt lat="47.52745" lon="-0.32682">
        <ele>39</ele>
        <time>2023-06-18T07:27:45.000Z</time>
      </trkpt>
      <trkpt lat="47.52654" lon="-0.3274">
        <ele>41</ele>
        <time>2023-06-18T07:28:11.000Z</time>
      </trkpt>
      <trkpt lat="47.52544" lon="-0.32771">
        <ele>36.3</ele>
        <time>2023-06-18T07:28:31.000Z</time>
      </trkpt>
      <trkpt lat="47.52483" lon="-0.32803">
        <ele>34.7</ele>
        <time>2023-06-18T07:28:41.000Z</time>
      </trkpt>
      <trkpt lat="47.52416" lon="-0.32849">
        <ele>33.6</ele>
        <time>2023-06-18T07:28:53.000Z</time>
      </trkpt>
      <trkpt lat="47.52356" lon="-0.32917">
        <ele>33.8</ele>
        <time>2023-06-18T07:29:07.000Z</time>
      </trkpt>
      <trkpt lat="47.52326" lon="-0.3293">
        <ele>34.1</ele>
        <time>2023-06-18T07:29:13.000Z</time>
      </trkpt>
      <trkpt lat="47.52276" lon="-0.32939">
        <ele>34</ele>
        <time>2023-06-18T07:29:23.000Z</time>
      </trkpt>
      <trkpt lat="47.52166" lon="-0.3301">
        <ele>34.7</ele>
        <time>2023-06-18T07:29:47.000Z</time>
      </trkpt>
      <trkpt lat="47.52136" lon="-0.33037">
        <ele>35.2</ele>
        <time>2023-06-18T07:29:55.000Z</time>
      </trkpt>
      <trkpt lat="47.52128" lon="-0.33063">
        <ele>36</ele>
        <time>2023-06-18T07:30:03.000Z</time>
      </trkpt>
      <trkpt lat="47.52125" lon="-0.33065">
        <ele>36</ele>
        <time>2023-06-18T07:30:05.000Z</time>
      </trkpt>
      <trkpt lat="47.52041" lon="-0.33063">
        <ele>36.3</ele>
        <time>2023-06-18T07:30:23.000Z</time>
      </trkpt>
      <trkpt lat="47.5197" lon="-0.3305">
        <ele>35.8</ele>
        <time>2023-06-18T07:30:37.000Z</time>
      </trkpt>
      <trkpt lat="47.51766" lon="-0.32968">
        <ele>37.7</ele>
        <time>2023-06-18T07:31:19.000Z</time>
      </trkpt>
      <trkpt lat="47.51718" lon="-0.32956">
        <ele>40.2</ele>
        <time>2023-06-18T07:31:31.000Z</time>
      </trkpt>
      <trkpt lat="47.5159" lon="-0.32898">
        <ele>44.6</ele>
        <time>2023-06-18T07:32:05.000Z</time>
      </trkpt>
      <trkpt lat="47.51577" lon="-0.32901">
        <ele>45.3</ele>
        <time>2023-06-18T07:32:09.000Z</time>
      </trkpt>
      <trkpt lat="47.51574" lon="-0.32908">
        <ele>46</ele>
        <time>2023-06-18T07:32:11.000Z</time>
      </trkpt>
      <trkpt lat="47.51559" lon="-0.32973">
        <ele>52</ele>
        <time>2023-06-18T07:32:35.000Z</time>
      </trkpt>
      <trkpt lat="47.51536" lon="-0.33011">
        <ele>57.1</ele>
        <time>2023-06-18T07:32:55.000Z</time>
      </trkpt>
      <trkpt lat="47.51531" lon="-0.33076">
        <ele>60.7</ele>
        <time>2023-06-18T07:33:19.000Z</time>
      </trkpt>
      <trkpt lat="47.51515" lon="-0.33109">
        <ele>61.9</ele>
        <time>2023-06-18T07:33:31.000Z</time>
      </trkpt>
      <trkpt lat="47.51504" lon="-0.3319">
        <ele>60.9</ele>
        <time>2023-06-18T07:33:49.000Z</time>
      </trkpt>
      <trkpt lat="47.51503" lon="-0.33274">
        <ele>59.8</ele>
        <time>2023-06-18T07:34:01.000Z</time>
      </trkpt>
      <trkpt lat="47.51507" lon="-0.33304">
        <ele>59.5</ele>
        <time>2023-06-18T07:34:05.000Z</time>
      </trkpt>
      <trkpt lat="47.51528" lon="-0.33362">
        <ele>57</ele>
        <time>2023-06-18T07:34:13.000Z</time>
      </trkpt>
      <trkpt lat="47.51566" lon="-0.3343">
        <ele>59.3</ele>
        <time>2023-06-18T07:34:23.000Z</time>
      </trkpt>
      <trkpt lat="47.51584" lon="-0.335">
        <ele>56</ele>
        <time>2023-06-18T07:34:29.000Z</time>
      </trkpt>
      <trkpt lat="47.51623" lon="-0.33547">
        <ele>49</ele>
        <time>2023-06-18T07:34:35.000Z</time>
      </trkpt>
      <trkpt lat="47.51648" lon="-0.33588">
        <ele>46.8</ele>
        <time>2023-06-18T07:34:39.000Z</time>
      </trkpt>
      <trkpt lat="47.51683" lon="-0.33679">
        <ele>50.4</ele>
        <time>2023-06-18T07:34:47.000Z</time>
      </trkpt>
      <trkpt lat="47.51696" lon="-0.33705">
        <ele>51.9</ele>
        <time>2023-06-18T07:34:51.000Z</time>
      </trkpt>
      <trkpt lat="47.51709" lon="-0.33718">
        <ele>53.7</ele>
        <time>2023-06-18T07:34:55.000Z</time>
      </trkpt>
      <trkpt lat="47.5172" lon="-0.33713">
        <ele>54.2</ele>
        <time>2023-06-18T07:35:03.000Z</time>
      </trkpt>
      <trkpt lat="47.51741" lon="-0.33724">
        <ele>55.7</ele>
        <time>2023-06-18T07:35:09.000Z</time>
      </trkpt>
      <trkpt lat="47.51759" lon="-0.33709">
        <ele>55.8</ele>
        <time>2023-06-18T07:35:15.000Z</time>
      </trkpt>
      <trkpt lat="47.51783" lon="-0.33702">
        <ele>56.3</ele>
        <time>2023-06-18T07:35:23.000Z</time>
      </trkpt>
      <trkpt lat="47.51809" lon="-0.33701">
        <ele>56.2</ele>
        <time>2023-06-18T07:35:29.000Z</time>
      </trkpt>
      <trkpt lat="47.51831" lon="-0.3371">
        <ele>56.6</ele>
        <time>2023-06-18T07:35:33.000Z</time>
      </trkpt>
      <trkpt lat="47.51887" lon="-0.3377">
        <ele>57</ele>
        <time>2023-06-18T07:35:45.000Z</time>
      </trkpt>
      <trkpt lat="47.51988" lon="-0.33866">
        <ele>54.4</ele>
        <time>2023-06-18T07:36:05.000Z</time>
      </trkpt>
      <trkpt lat="47.52137" lon="-0.34057">
        <ele>51.1</ele>
        <time>2023-06-18T07:36:35.000Z</time>
      </trkpt>
      <trkpt lat="47.52167" lon="-0.34077">
        <ele>51</ele>
        <time>2023-06-18T07:36:41.000Z</time>
      </trkpt>
      <trkpt lat="47.52221" lon="-0.34136">
        <ele>50</ele>
        <time>2023-06-18T07:36:51.000Z</time>
      </trkpt>
      <trkpt lat="47.52264" lon="-0.3417">
        <ele>49</ele>
        <time>2023-06-18T07:36:57.000Z</time>
      </trkpt>
      <trkpt lat="47.52333" lon="-0.34269">
        <ele>47.3</ele>
        <time>2023-06-18T07:37:09.000Z</time>
      </trkpt>
      <trkpt lat="47.52408" lon="-0.34334">
        <ele>46</ele>
        <time>2023-06-18T07:37:21.000Z</time>
      </trkpt>
      <trkpt lat="47.52498" lon="-0.34432">
        <ele>44.8</ele>
        <time>2023-06-18T07:37:35.000Z</time>
      </trkpt>
      <trkpt lat="47.52556" lon="-0.34474">
        <ele>43</ele>
        <time>2023-06-18T07:37:45.000Z</time>
      </trkpt>
      <trkpt lat="47.52577" lon="-0.34476">
        <ele>42.2</ele>
        <time>2023-06-18T07:37:53.000Z</time>
      </trkpt>
      <trkpt lat="47.52601" lon="-0.34452">
        <ele>42.8</ele>
        <time>2023-06-18T07:38:01.000Z</time>
      </trkpt>
      <trkpt lat="47.52615" lon="-0.34416">
        <ele>43.9</ele>
        <time>2023-06-18T07:38:09.000Z</time>
      </trkpt>
      <trkpt lat="47.5263" lon="-0.34399">
        <ele>44.6</ele>
        <time>2023-06-18T07:38:13.000Z</time>
      </trkpt>
      <trkpt lat="47.52661" lon="-0.34381">
        <ele>44.7</ele>
        <time>2023-06-18T07:38:19.000Z</time>
      </trkpt>
      <trkpt lat="47.527" lon="-0.34338">
        <ele>47</ele>
        <time>2023-06-18T07:38:31.000Z</time>
      </trkpt>
      <trkpt lat="47.52732" lon="-0.34319">
        <ele>48.9</ele>
        <time>2023-06-18T07:38:41.000Z</time>
      </trkpt>
      <trkpt lat="47.52754" lon="-0.34299">
        <ele>50.3</ele>
        <time>2023-06-18T07:38:49.000Z</time>
      </trkpt>
      <trkpt lat="47.52757" lon="-0.34292">
        <ele>50.6</ele>
        <time>2023-06-18T07:38:51.000Z</time>
      </trkpt>
      <trkpt lat="47.52757" lon="-0.34275">
        <ele>51</ele>
        <time>2023-06-18T07:38:55.000Z</time>
      </trkpt>
      <trkpt lat="47.52745" lon="-0.34241">
        <ele>51.3</ele>
        <time>2023-06-18T07:39:07.000Z</time>
      </trkpt>
      <trkpt lat="47.52726" lon="-0.34201">
        <ele>52</ele>
        <time>2023-06-18T07:39:21.000Z</time>
      </trkpt>
      <trkpt lat="47.52646" lon="-0.34056">
        <ele>54</ele>
        <time>2023-06-18T07:39:51.000Z</time>
      </trkpt>
      <trkpt lat="47.52637" lon="-0.34029">
        <ele>54.9</ele>
        <time>2023-06-18T07:39:55.000Z</time>
      </trkpt>
      <trkpt lat="47.52636" lon="-0.3399">
        <ele>55</ele>
        <time>2023-06-18T07:40:01.000Z</time>
      </trkpt>
      <trkpt lat="47.52647" lon="-0.33952">
        <ele>55</ele>
        <time>2023-06-18T07:40:07.000Z</time>
      </trkpt>
      <trkpt lat="47.5266" lon="-0.33867">
        <ele>56</ele>
        <time>2023-06-18T07:40:19.000Z</time>
      </trkpt>
      <trkpt lat="47.52672" lon="-0.33851">
        <ele>56</ele>
        <time>2023-06-18T07:40:23.000Z</time>
      </trkpt>
      <trkpt lat="47.52689" lon="-0.33847">
        <ele>56</ele>
        <time>2023-06-18T07:40:27.000Z</time>
      </trkpt>
      <trkpt lat="47.52698" lon="-0.33852">
        <ele>56</ele>
        <time>2023-06-18T07:40:29.000Z</time>
      </trkpt>
      <trkpt lat="47.5271" lon="-0.33871">
        <ele>56</ele>
        <time>2023-06-18T07:40:33.000Z</time>
      </trkpt>
      <trkpt lat="47.52716" lon="-0.33875">
        <ele>56</ele>
        <time>2023-06-18T07:40:35.000Z</time>
      </trkpt>
      <trkpt lat="47.52723" lon="-0.33873">
        <ele>56</ele>
        <time>2023-06-18T07:40:37.000Z</time>
      </trkpt>
      <trkpt lat="47.52826" lon="-0.33745">
        <ele>55</ele>
        <time>2023-06-18T07:41:05.000Z</time>
      </trkpt>
      <trkpt lat="47.52893" lon="-0.33681">
        <ele>54</ele>
        <time>2023-06-18T07:41:19.000Z</time>
      </trkpt>
      <trkpt lat="47.52917" lon="-0.33672">
        <ele>54</ele>
        <time>2023-06-18T07:41:23.000Z</time>
      </trkpt>
      <trkpt lat="47.52956" lon="-0.3367">
        <ele>53</ele>
        <time>2023-06-18T07:41:29.000Z</time>
      </trkpt>
      <trkpt lat="47.53031" lon="-0.33695">
        <ele>52.9</ele>
        <time>2023-06-18T07:41:37.000Z</time>
      </trkpt>
      <trkpt lat="47.53066" lon="-0.33688">
        <ele>52</ele>
        <time>2023-06-18T07:41:43.000Z</time>
      </trkpt>
      <trkpt lat="47.53091" lon="-0.33691">
        <ele>52</ele>
        <time>2023-06-18T07:41:47.000Z</time>
      </trkpt>
      <trkpt lat="47.53168" lon="-0.33717">
        <ele>51</ele>
        <time>2023-06-18T07:41:59.000Z</time>
      </trkpt>
      <trkpt lat="47.53205" lon="-0.33721">
        <ele>50.6</ele>
        <time>2023-06-18T07:42:05.000Z</time>
      </trkpt>
      <trkpt lat="47.53281" lon="-0.33718">
        <ele>49.9</ele>
        <time>2023-06-18T07:42:17.000Z</time>
      </trkpt>
      <trkpt lat="47.53314" lon="-0.33723">
        <ele>49</ele>
        <time>2023-06-18T07:42:23.000Z</time>
      </trkpt>
      <trkpt lat="47.5338" lon="-0.33711">
        <ele>49</ele>
        <time>2023-06-18T07:42:35.000Z</time>
      </trkpt>
      <trkpt lat="47.53431" lon="-0.33742">
        <ele>49</ele>
        <time>2023-06-18T07:42:45.000Z</time>
      </trkpt>
      <trkpt lat="47.5344" lon="-0.33742">
        <ele>49</ele>
        <time>2023-06-18T07:42:47.000Z</time>
      </trkpt>
      <trkpt lat="47.53456" lon="-0.33731">
        <ele>49</ele>
        <time>2023-06-18T07:42:51.000Z</time>
      </trkpt>
      <trkpt lat="47.53458" lon="-0.33721">
        <ele>49</ele>
        <time>2023-06-18T07:42:53.000Z</time>
      </trkpt>
      <trkpt lat="47.53457" lon="-0.33657">
        <ele>49</ele>
        <time>2023-06-18T07:43:01.000Z</time>
      </trkpt>
      <trkpt lat="47.53447" lon="-0.33472">
        <ele>49</ele>
        <time>2023-06-18T07:43:25.000Z</time>
      </trkpt>
      <trkpt lat="47.53451" lon="-0.33374">
        <ele>49</ele>
        <time>2023-06-18T07:43:37.000Z</time>
      </trkpt>
      <trkpt lat="47.53445" lon="-0.33292">
        <ele>49</ele>
        <time>2023-06-18T07:43:49.000Z</time>
      </trkpt>
      <trkpt lat="47.53457" lon="-0.33273">
        <ele>49</ele>
        <time>2023-06-18T07:43:53.000Z</time>
      </trkpt>
      <trkpt lat="47.53509" lon="-0.33239">
        <ele>49</ele>
        <time>2023-06-18T07:44:03.000Z</time>
      </trkpt>
      <trkpt lat="47.53536" lon="-0.33205">
        <ele>49</ele>
        <time>2023-06-18T07:44:09.000Z</time>
      </trkpt>
      <trkpt lat="47.53574" lon="-0.33167">
        <ele>49</ele>
        <time>2023-06-18T07:44:17.000Z</time>
      </trkpt>
      <trkpt lat="47.53595" lon="-0.33159">
        <ele>48.3</ele>
        <time>2023-06-18T07:44:21.000Z</time>
      </trkpt>
      <trkpt lat="47.53604" lon="-0.33165">
        <ele>47.6</ele>
        <time>2023-06-18T07:44:23.000Z</time>
      </trkpt>
      <trkpt lat="47.5361" lon="-0.33177">
        <ele>47.8</ele>
        <time>2023-06-18T07:44:25.000Z</time>
      </trkpt>
      <trkpt lat="47.53622" lon="-0.33224">
        <ele>48.6</ele>
        <time>2023-06-18T07:44:31.000Z</time>
      </trkpt>
      <trkpt lat="47.53632" lon="-0.33281">
        <ele>48.3</ele>
        <time>2023-06-18T07:44:39.000Z</time>
      </trkpt>
      <trkpt lat="47.53632" lon="-0.33315">
        <ele>48.7</ele>
        <time>2023-06-18T07:44:43.000Z</time>
      </trkpt>
      <trkpt lat="47.53637" lon="-0.33343">
        <ele>49.1</ele>
        <time>2023-06-18T07:44:47.000Z</time>
      </trkpt>
      <trkpt lat="47.53652" lon="-0.33363">
        <ele>48.6</ele>
        <time>2023-06-18T07:44:51.000Z</time>
      </trkpt>
      <trkpt lat="47.53752" lon="-0.33467">
        <ele>48</ele>
        <time>2023-06-18T07:45:13.000Z</time>
      </trkpt>
      <trkpt lat="47.53829" lon="-0.3356">
        <ele>48</ele>
        <time>2023-06-18T07:45:31.000Z</time>
      </trkpt>
      <trkpt lat="47.53872" lon="-0.33591">
        <ele>47.4</ele>
        <time>2023-06-18T07:45:39.000Z</time>
      </trkpt>
      <trkpt lat="47.53879" lon="-0.33604">
        <ele>47.1</ele>
        <time>2023-06-18T07:45:41.000Z</time>
      </trkpt>
      <trkpt lat="47.53883" lon="-0.33621">
        <ele>47</ele>
        <time>2023-06-18T07:45:43.000Z</time>
      </trkpt>
      <trkpt lat="47.53897" lon="-0.3372">
        <ele>46.7</ele>
        <time>2023-06-18T07:45:55.000Z</time>
      </trkpt>
      <trkpt lat="47.53898" lon="-0.33753">
        <ele>47.7</ele>
        <time>2023-06-18T07:45:59.000Z</time>
      </trkpt>
      <trkpt lat="47.53897" lon="-0.33857">
        <ele>48.7</ele>
        <time>2023-06-18T07:46:13.000Z</time>
      </trkpt>
      <trkpt lat="47.53892" lon="-0.33865">
        <ele>48.8</ele>
        <time>2023-06-18T07:46:15.000Z</time>
      </trkpt>
      <trkpt lat="47.53883" lon="-0.33869">
        <ele>49</ele>
        <time>2023-06-18T07:46:17.000Z</time>
      </trkpt>
      <trkpt lat="47.53732" lon="-0.33831">
        <ele>50</ele>
        <time>2023-06-18T07:46:45.000Z</time>
      </trkpt>
      <trkpt lat="47.53685" lon="-0.33814">
        <ele>49.7</ele>
        <time>2023-06-18T07:46:53.000Z</time>
      </trkpt>
      <trkpt lat="47.53673" lon="-0.33812">
        <ele>49.2</ele>
        <time>2023-06-18T07:46:55.000Z</time>
      </trkpt>
      <trkpt lat="47.53654" lon="-0.33816">
        <ele>49</ele>
        <time>2023-06-18T07:46:59.000Z</time>
      </trkpt>
      <trkpt lat="47.53654" lon="-0.33835">
        <ele>49</ele>
        <time>2023-06-18T07:47:03.000Z</time>
      </trkpt>
      <trkpt lat="47.53678" lon="-0.33889">
        <ele>49.4</ele>
        <time>2023-06-18T07:47:11.000Z</time>
      </trkpt>
      <trkpt lat="47.53683" lon="-0.33902">
        <ele>49.6</ele>
        <time>2023-06-18T07:47:13.000Z</time>
      </trkpt>
      <trkpt lat="47.53683" lon="-0.33914">
        <ele>49.6</ele>
        <time>2023-06-18T07:47:15.000Z</time>
      </trkpt>
      <trkpt lat="47.53677" lon="-0.33937">
        <ele>49.4</ele>
        <time>2023-06-18T07:47:19.000Z</time>
      </trkpt>
      <trkpt lat="47.53675" lon="-0.33962">
        <ele>49.3</ele>
        <time>2023-06-18T07:47:23.000Z</time>
      </trkpt>
      <trkpt lat="47.53657" lon="-0.34025">
        <ele>47.6</ele>
        <time>2023-06-18T07:47:33.000Z</time>
      </trkpt>
      <trkpt lat="47.53637" lon="-0.34067">
        <ele>46.9</ele>
        <time>2023-06-18T07:47:41.000Z</time>
      </trkpt>
      <trkpt lat="47.53631" lon="-0.34075">
        <ele>46.4</ele>
        <time>2023-06-18T07:47:43.000Z</time>
      </trkpt>
      <trkpt lat="47.53613" lon="-0.34084">
        <ele>45.2</ele>
        <time>2023-06-18T07:47:47.000Z</time>
      </trkpt>
      <trkpt lat="47.53558" lon="-0.34092">
        <ele>42.8</ele>
        <time>2023-06-18T07:47:57.000Z</time>
      </trkpt>
      <trkpt lat="47.53523" lon="-0.34129">
        <ele>41.6</ele>
        <time>2023-06-18T07:48:05.000Z</time>
      </trkpt>
      <trkpt lat="47.53514" lon="-0.34145">
        <ele>41.4</ele>
        <time>2023-06-18T07:48:11.000Z</time>
      </trkpt>
      <trkpt lat="47.535" lon="-0.34147">
        <ele>41.7</ele>
        <time>2023-06-18T07:48:15.000Z</time>
      </trkpt>
      <trkpt lat="47.53461" lon="-0.3413">
        <ele>43.7</ele>
        <time>2023-06-18T07:48:27.000Z</time>
      </trkpt>
      <trkpt lat="47.53436" lon="-0.34127">
        <ele>44.4</ele>
        <time>2023-06-18T07:48:35.000Z</time>
      </trkpt>
      <trkpt lat="47.53402" lon="-0.34114">
        <ele>45.4</ele>
        <time>2023-06-18T07:48:45.000Z</time>
      </trkpt>
      <trkpt lat="47.53368" lon="-0.34113">
        <ele>46.7</ele>
        <time>2023-06-18T07:48:53.000Z</time>
      </trkpt>
      <trkpt lat="47.53351" lon="-0.34117">
        <ele>47.1</ele>
        <time>2023-06-18T07:48:59.000Z</time>
      </trkpt>
      <trkpt lat="47.53316" lon="-0.34114">
        <ele>48.5</ele>
        <time>2023-06-18T07:49:09.000Z</time>
      </trkpt>
      <trkpt lat="47.53253" lon="-0.34123">
        <ele>50</ele>
        <time>2023-06-18T07:49:23.000Z</time>
      </trkpt>
      <trkpt lat="47.53222" lon="-0.34132">
        <ele>51</ele>
        <time>2023-06-18T07:49:31.000Z</time>
      </trkpt>
      <trkpt lat="47.53189" lon="-0.34152">
        <ele>51</ele>
        <time>2023-06-18T07:49:39.000Z</time>
      </trkpt>
      <trkpt lat="47.53145" lon="-0.34166">
        <ele>51.8</ele>
        <time>2023-06-18T07:49:49.000Z</time>
      </trkpt>
      <trkpt lat="47.5313" lon="-0.34181">
        <ele>51.7</ele>
        <time>2023-06-18T07:49:53.000Z</time>
      </trkpt>
      <trkpt lat="47.53105" lon="-0.34218">
        <ele>51.3</ele>
        <time>2023-06-18T07:50:01.000Z</time>
      </trkpt>
      <trkpt lat="47.53091" lon="-0.34228">
        <ele>51.7</ele>
        <time>2023-06-18T07:50:05.000Z</time>
      </trkpt>
      <trkpt lat="47.53032" lon="-0.34219">
        <ele>52</ele>
        <time>2023-06-18T07:50:17.000Z</time>
      </trkpt>
      <trkpt lat="47.53024" lon="-0.34224">
        <ele>52</ele>
        <time>2023-06-18T07:50:19.000Z</time>
      </trkpt>
      <trkpt lat="47.5299" lon="-0.34269">
        <ele>52</ele>
        <time>2023-06-18T07:50:31.000Z</time>
      </trkpt>
      <trkpt lat="47.52947" lon="-0.34294">
        <ele>52.5</ele>
        <time>2023-06-18T07:50:43.000Z</time>
      </trkpt>
      <trkpt lat="47.52901" lon="-0.34313">
        <ele>53</ele>
        <time>2023-06-18T07:50:53.000Z</time>
      </trkpt>
      <trkpt lat="47.52879" lon="-0.34318">
        <ele>53</ele>
        <time>2023-06-18T07:50:57.000Z</time>
      </trkpt>
      <trkpt lat="47.52855" lon="-0.34317">
        <ele>53</ele>
        <time>2023-06-18T07:51:01.000Z</time>
      </trkpt>
      <trkpt lat="47.52832" lon="-0.34302">
        <ele>52.9</ele>
        <time>2023-06-18T07:51:03.000Z</time>
      </trkpt>
      <trkpt lat="47.52783" lon="-0.34279">
        <ele>51.2</ele>
        <time>2023-06-18T07:51:09.000Z</time>
      </trkpt>
      <trkpt lat="47.52753" lon="-0.34299">
        <ele>50.3</ele>
        <time>2023-06-18T07:51:13.000Z</time>
      </trkpt>
      <trkpt lat="47.52667" lon="-0.34383">
        <ele>44.5</ele>
        <time>2023-06-18T07:51:27.000Z</time>
      </trkpt>
      <trkpt lat="47.52644" lon="-0.34413">
        <ele>43.2</ele>
        <time>2023-06-18T07:51:33.000Z</time>
      </trkpt>
      <trkpt lat="47.52584" lon="-0.34466">
        <ele>42.4</ele>
        <time>2023-06-18T07:51:51.000Z</time>
      </trkpt>
      <trkpt lat="47.52582" lon="-0.34472">
        <ele>42.1</ele>
        <time>2023-06-18T07:51:53.000Z</time>
      </trkpt>
      <trkpt lat="47.52615" lon="-0.3451">
        <ele>40.9</ele>
        <time>2023-06-18T07:52:03.000Z</time>
      </trkpt>
      <trkpt lat="47.5262" lon="-0.34519">
        <ele>40.9</ele>
        <time>2023-06-18T07:52:05.000Z</time>
      </trkpt>
      <trkpt lat="47.52619" lon="-0.34529">
        <ele>41</ele>
        <time>2023-06-18T07:52:07.000Z</time>
      </trkpt>
      <trkpt lat="47.52584" lon="-0.34568">
        <ele>44.4</ele>
        <time>2023-06-18T07:52:23.000Z</time>
      </trkpt>
      <trkpt lat="47.52564" lon="-0.34575">
        <ele>45.4</ele>
        <time>2023-06-18T07:52:29.000Z</time>
      </trkpt>
      <trkpt lat="47.52546" lon="-0.34588">
        <ele>46.6</ele>
        <time>2023-06-18T07:52:35.000Z</time>
      </trkpt>
      <trkpt lat="47.52515" lon="-0.34626">
        <ele>49</ele>
        <time>2023-06-18T07:52:51.000Z</time>
      </trkpt>
      <trkpt lat="47.52487" lon="-0.34649">
        <ele>50.5</ele>
        <time>2023-06-18T07:53:01.000Z</time>
      </trkpt>
      <trkpt lat="47.52476" lon="-0.34663">
        <ele>51.6</ele>
        <time>2023-06-18T07:53:05.000Z</time>
      </trkpt>
      <trkpt lat="47.52467" lon="-0.34678">
        <ele>52.1</ele>
        <time>2023-06-18T07:53:09.000Z</time>
      </trkpt>
      <trkpt lat="47.52455" lon="-0.3471">
        <ele>53.2</ele>
        <time>2023-06-18T07:53:17.000Z</time>
      </trkpt>
      <trkpt lat="47.52441" lon="-0.34734">
        <ele>54.4</ele>
        <time>2023-06-18T07:53:25.000Z</time>
      </trkpt>
      <trkpt lat="47.5242" lon="-0.34801">
        <ele>56</ele>
        <time>2023-06-18T07:53:41.000Z</time>
      </trkpt>
      <trkpt lat="47.52408" lon="-0.34825">
        <ele>56.8</ele>
        <time>2023-06-18T07:53:47.000Z</time>
      </trkpt>
      <trkpt lat="47.52395" lon="-0.34864">
        <ele>57.8</ele>
        <time>2023-06-18T07:53:55.000Z</time>
      </trkpt>
      <trkpt lat="47.52369" lon="-0.34908">
        <ele>58.9</ele>
        <time>2023-06-18T07:54:05.000Z</time>
      </trkpt>
      <trkpt lat="47.52352" lon="-0.34946">
        <ele>60</ele>
        <time>2023-06-18T07:54:13.000Z</time>
      </trkpt>
      <trkpt lat="47.52339" lon="-0.34957">
        <ele>60</ele>
        <time>2023-06-18T07:54:17.000Z</time>
      </trkpt>
      <trkpt lat="47.52331" lon="-0.34955">
        <ele>60</ele>
        <time>2023-06-18T07:54:19.000Z</time>
      </trkpt>
      <trkpt lat="47.52297" lon="-0.34931">
        <ele>60.2</ele>
        <time>2023-06-18T07:54:27.000Z</time>
      </trkpt>
      <trkpt lat="47.52269" lon="-0.34902">
        <ele>59</ele>
        <time>2023-06-18T07:54:35.000Z</time>
      </trkpt>
      <trkpt lat="47.52232" lon="-0.34886">
        <ele>55.6</ele>
        <time>2023-06-18T07:54:43.000Z</time>
      </trkpt>
      <trkpt lat="47.52221" lon="-0.3489">
        <ele>54.9</ele>
        <time>2023-06-18T07:54:47.000Z</time>
      </trkpt>
      <trkpt lat="47.52218" lon="-0.34905">
        <ele>55.3</ele>
        <time>2023-06-18T07:54:51.000Z</time>
      </trkpt>
      <trkpt lat="47.52217" lon="-0.34936">
        <ele>56.2</ele>
        <time>2023-06-18T07:54:57.000Z</time>
      </trkpt>
      <trkpt lat="47.52206" lon="-0.3496">
        <ele>55.8</ele>
        <time>2023-06-18T07:55:03.000Z</time>
      </trkpt>
      <trkpt lat="47.52204" lon="-0.34992">
        <ele>56.7</ele>
        <time>2023-06-18T07:55:09.000Z</time>
      </trkpt>
      <trkpt lat="47.52198" lon="-0.35034">
        <ele>58.5</ele>
        <time>2023-06-18T07:55:17.000Z</time>
      </trkpt>
      <trkpt lat="47.52185" lon="-0.35077">
        <ele>59.1</ele>
        <time>2023-06-18T07:55:27.000Z</time>
      </trkpt>
      <trkpt lat="47.52172" lon="-0.35103">
        <ele>59.7</ele>
        <time>2023-06-18T07:55:35.000Z</time>
      </trkpt>
      <trkpt lat="47.52156" lon="-0.35127">
        <ele>59.4</ele>
        <time>2023-06-18T07:55:43.000Z</time>
      </trkpt>
      <trkpt lat="47.52148" lon="-0.35152">
        <ele>59.8</ele>
        <time>2023-06-18T07:55:49.000Z</time>
      </trkpt>
      <trkpt lat="47.52119" lon="-0.35196">
        <ele>60.3</ele>
        <time>2023-06-18T07:56:01.000Z</time>
      </trkpt>
      <trkpt lat="47.52088" lon="-0.35223">
        <ele>60.2</ele>
        <time>2023-06-18T07:56:11.000Z</time>
      </trkpt>
      <trkpt lat="47.52069" lon="-0.35247">
        <ele>60.4</ele>
        <time>2023-06-18T07:56:17.000Z</time>
      </trkpt>
      <trkpt lat="47.52048" lon="-0.3526">
        <ele>60.1</ele>
        <time>2023-06-18T07:56:21.000Z</time>
      </trkpt>
      <trkpt lat="47.52042" lon="-0.35268">
        <ele>60.2</ele>
        <time>2023-06-18T07:56:23.000Z</time>
      </trkpt>
      <trkpt lat="47.52039" lon="-0.35283">
        <ele>60.6</ele>
        <time>2023-06-18T07:56:27.000Z</time>
      </trkpt>
      <trkpt lat="47.52041" lon="-0.35295">
        <ele>61.1</ele>
        <time>2023-06-18T07:56:31.000Z</time>
      </trkpt>
      <trkpt lat="47.52064" lon="-0.35324">
        <ele>62.2</ele>
        <time>2023-06-18T07:56:43.000Z</time>
      </trkpt>
      <trkpt lat="47.52078" lon="-0.3535">
        <ele>62.9</ele>
        <time>2023-06-18T07:56:51.000Z</time>
      </trkpt>
      <trkpt lat="47.52094" lon="-0.35369">
        <ele>63.4</ele>
        <time>2023-06-18T07:56:57.000Z</time>
      </trkpt>
      <trkpt lat="47.52138" lon="-0.35453">
        <ele>64</ele>
        <time>2023-06-18T07:57:17.000Z</time>
      </trkpt>
      <trkpt lat="47.52162" lon="-0.35486">
        <ele>64</ele>
        <time>2023-06-18T07:57:27.000Z</time>
      </trkpt>
      <trkpt lat="47.52165" lon="-0.35493">
        <ele>64</ele>
        <time>2023-06-18T07:57:29.000Z</time>
      </trkpt>
      <trkpt lat="47.52163" lon="-0.3551">
        <ele>64</ele>
        <time>2023-06-18T07:57:33.000Z</time>
      </trkpt>
      <trkpt lat="47.52138" lon="-0.35539">
        <ele>64.4</ele>
        <time>2023-06-18T07:57:41.000Z</time>
      </trkpt>
      <trkpt lat="47.52123" lon="-0.35565">
        <ele>65.2</ele>
        <time>2023-06-18T07:57:47.000Z</time>
      </trkpt>
      <trkpt lat="47.5207" lon="-0.35622">
        <ele>65.5</ele>
        <time>2023-06-18T07:58:03.000Z</time>
      </trkpt>
      <trkpt lat="47.52054" lon="-0.35659">
        <ele>65.7</ele>
        <time>2023-06-18T07:58:11.000Z</time>
      </trkpt>
      <trkpt lat="47.52047" lon="-0.35668">
        <ele>65.7</ele>
        <time>2023-06-18T07:58:13.000Z</time>
      </trkpt>
      <trkpt lat="47.51986" lon="-0.35712">
        <ele>65</ele>
        <time>2023-06-18T07:58:27.000Z</time>
      </trkpt>
      <trkpt lat="47.51919" lon="-0.35782">
        <ele>65</ele>
        <time>2023-06-18T07:58:49.000Z</time>
      </trkpt>
      <trkpt lat="47.51905" lon="-0.35786">
        <ele>65</ele>
        <time>2023-06-18T07:58:53.000Z</time>
      </trkpt>
      <trkpt lat="47.51817" lon="-0.35847">
        <ele>65</ele>
        <time>2023-06-18T07:59:15.000Z</time>
      </trkpt>
      <trkpt lat="47.51774" lon="-0.35889">
        <ele>65</ele>
        <time>2023-06-18T07:59:25.000Z</time>
      </trkpt>
      <trkpt lat="47.51754" lon="-0.35915">
        <ele>65</ele>
        <time>2023-06-18T07:59:31.000Z</time>
      </trkpt>
      <trkpt lat="47.51708" lon="-0.35956">
        <ele>65.2</ele>
        <time>2023-06-18T07:59:41.000Z</time>
      </trkpt>
      <trkpt lat="47.5163" lon="-0.36002">
        <ele>65.7</ele>
        <time>2023-06-18T07:59:57.000Z</time>
      </trkpt>
      <trkpt lat="47.51613" lon="-0.36018">
        <ele>65.7</ele>
        <time>2023-06-18T08:00:01.421Z</time>
      </trkpt>
      <trkpt lat="47.51602" lon="-0.36053">
        <ele>66</ele>
        <time>2023-06-18T08:00:08.000Z</time>
      </trkpt>
      <trkpt lat="47.51601" lon="-0.36089">
        <ele>66</ele>
        <time>2023-06-18T08:00:13.421Z</time>
      </trkpt>
      <trkpt lat="47.51617" lon="-0.36166">
        <ele>64</ele>
        <time>2023-06-18T08:00:25.000Z</time>
      </trkpt>
      <trkpt lat="47.51633" lon="-0.36217">
        <ele>61.6</ele>
        <time>2023-06-18T08:00:31.000Z</time>
      </trkpt>
      <trkpt lat="47.51636" lon="-0.36232">
        <ele>60.7</ele>
        <time>2023-06-18T08:00:33.000Z</time>
      </trkpt>
      <trkpt lat="47.51633" lon="-0.36245">
        <ele>60.2</ele>
        <time>2023-06-18T08:00:35.000Z</time>
      </trkpt>
      <trkpt lat="47.51625" lon="-0.36255">
        <ele>59.8</ele>
        <time>2023-06-18T08:00:37.000Z</time>
      </trkpt>
      <trkpt lat="47.51584" lon="-0.36284">
        <ele>59.8</ele>
        <time>2023-06-18T08:00:45.000Z</time>
      </trkpt>
      <trkpt lat="47.51563" lon="-0.36306">
        <ele>59</ele>
        <time>2023-06-18T08:00:49.000Z</time>
      </trkpt>
      <trkpt lat="47.51521" lon="-0.36325">
        <ele>59.3</ele>
        <time>2023-06-18T08:00:57.000Z</time>
      </trkpt>
      <trkpt lat="47.51503" lon="-0.36344">
        <ele>58.3</ele>
        <time>2023-06-18T08:01:01.000Z</time>
      </trkpt>
      <trkpt lat="47.51463" lon="-0.36403">
        <ele>55.1</ele>
        <time>2023-06-18T08:01:09.000Z</time>
      </trkpt>
      <trkpt lat="47.51428" lon="-0.36442">
        <ele>51.9</ele>
        <time>2023-06-18T08:01:15.000Z</time>
      </trkpt>
      <trkpt lat="47.5142" lon="-0.36462">
        <ele>50.7</ele>
        <time>2023-06-18T08:01:17.000Z</time>
      </trkpt>
      <trkpt lat="47.51417" lon="-0.36507">
        <ele>49</ele>
        <time>2023-06-18T08:01:21.000Z</time>
      </trkpt>
      <trkpt lat="47.51411" lon="-0.36525">
        <ele>48.8</ele>
        <time>2023-06-18T08:01:23.000Z</time>
      </trkpt>
      <trkpt lat="47.51397" lon="-0.36534">
        <ele>48</ele>
        <time>2023-06-18T08:01:25.000Z</time>
      </trkpt>
      <trkpt lat="47.51382" lon="-0.36538">
        <ele>47.4</ele>
        <time>2023-06-18T08:01:27.000Z</time>
      </trkpt>
      <trkpt lat="47.51353" lon="-0.36537">
        <ele>46.4</ele>
        <time>2023-06-18T08:01:31.000Z</time>
      </trkpt>
      <trkpt lat="47.51326" lon="-0.36541">
        <ele>45.4</ele>
        <time>2023-06-18T08:01:35.000Z</time>
      </trkpt>
      <trkpt lat="47.5128" lon="-0.36557">
        <ele>44.9</ele>
        <time>2023-06-18T08:01:43.000Z</time>
      </trkpt>
      <trkpt lat="47.51272" lon="-0.36565">
        <ele>44.7</ele>
        <time>2023-06-18T08:01:45.000Z</time>
      </trkpt>
      <trkpt lat="47.51269" lon="-0.36579">
        <ele>44.4</ele>
        <time>2023-06-18T08:01:47.000Z</time>
      </trkpt>
      <trkpt lat="47.51269" lon="-0.36597">
        <ele>43.8</ele>
        <time>2023-06-18T08:01:49.000Z</time>
      </trkpt>
      <trkpt lat="47.51286" lon="-0.36731">
        <ele>40.5</ele>
        <time>2023-06-18T08:02:03.000Z</time>
      </trkpt>
      <trkpt lat="47.51286" lon="-0.3675">
        <ele>40</ele>
        <time>2023-06-18T08:02:05.000Z</time>
      </trkpt>
      <trkpt lat="47.51281" lon="-0.36765">
        <ele>39.5</ele>
        <time>2023-06-18T08:02:07.000Z</time>
      </trkpt>
      <trkpt lat="47.51271" lon="-0.36775">
        <ele>39.1</ele>
        <time>2023-06-18T08:02:09.000Z</time>
      </trkpt>
      <trkpt lat="47.51232" lon="-0.36788">
        <ele>39.1</ele>
        <time>2023-06-18T08:02:15.000Z</time>
      </trkpt>
      <trkpt lat="47.5118" lon="-0.36797">
        <ele>39</ele>
        <time>2023-06-18T08:02:23.000Z</time>
      </trkpt>
      <trkpt lat="47.51142" lon="-0.36796">
        <ele>39.3</ele>
        <time>2023-06-18T08:02:29.000Z</time>
      </trkpt>
      <trkpt lat="47.51108" lon="-0.3679">
        <ele>40.2</ele>
        <time>2023-06-18T08:02:35.000Z</time>
      </trkpt>
      <trkpt lat="47.51053" lon="-0.3679">
        <ele>40.6</ele>
        <time>2023-06-18T08:02:45.000Z</time>
      </trkpt>
      <trkpt lat="47.51015" lon="-0.36784">
        <ele>41.9</ele>
        <time>2023-06-18T08:02:53.000Z</time>
      </trkpt>
      <trkpt lat="47.51008" lon="-0.36778">
        <ele>42</ele>
        <time>2023-06-18T08:02:55.000Z</time>
      </trkpt>
      <trkpt lat="47.51001" lon="-0.36757">
        <ele>42</ele>
        <time>2023-06-18T08:02:59.000Z</time>
      </trkpt>
      <trkpt lat="47.50997" lon="-0.36721">
        <ele>42.2</ele>
        <time>2023-06-18T08:03:05.000Z</time>
      </trkpt>
      <trkpt lat="47.50987" lon="-0.36671">
        <ele>43.8</ele>
        <time>2023-06-18T08:03:15.000Z</time>
      </trkpt>
      <trkpt lat="47.50985" lon="-0.36622">
        <ele>45.6</ele>
        <time>2023-06-18T08:03:25.000Z</time>
      </trkpt>
      <trkpt lat="47.51013" lon="-0.3653">
        <ele>49.4</ele>
        <time>2023-06-18T08:03:51.000Z</time>
      </trkpt>
      <trkpt lat="47.51028" lon="-0.36449">
        <ele>52.7</ele>
        <time>2023-06-18T08:04:13.000Z</time>
      </trkpt>
      <trkpt lat="47.51036" lon="-0.36436">
        <ele>53.6</ele>
        <time>2023-06-18T08:04:19.000Z</time>
      </trkpt>
      <trkpt lat="47.51085" lon="-0.36393">
        <ele>55.9</ele>
        <time>2023-06-18T08:04:41.000Z</time>
      </trkpt>
      <trkpt lat="47.51099" lon="-0.36369">
        <ele>56.3</ele>
        <time>2023-06-18T08:04:47.000Z</time>
      </trkpt>
      <trkpt lat="47.51105" lon="-0.36264">
        <ele>57.7</ele>
        <time>2023-06-18T08:05:07.000Z</time>
      </trkpt>
      <trkpt lat="47.51101" lon="-0.36183">
        <ele>59.8</ele>
        <time>2023-06-18T08:05:21.000Z</time>
      </trkpt>
      <trkpt lat="47.51091" lon="-0.36086">
        <ele>61.7</ele>
        <time>2023-06-18T08:05:39.000Z</time>
      </trkpt>
      <trkpt lat="47.51092" lon="-0.36053">
        <ele>61.7</ele>
        <time>2023-06-18T08:05:45.000Z</time>
      </trkpt>
      <trkpt lat="47.51097" lon="-0.36032">
        <ele>61.1</ele>
        <time>2023-06-18T08:05:49.000Z</time>
      </trkpt>
      <trkpt lat="47.51119" lon="-0.35992">
        <ele>60</ele>
        <time>2023-06-18T08:05:59.000Z</time>
      </trkpt>
      <trkpt lat="47.51166" lon="-0.35932">
        <ele>60</ele>
        <time>2023-06-18T08:06:11.000Z</time>
      </trkpt>
      <trkpt lat="47.51182" lon="-0.35903">
        <ele>60.3</ele>
        <time>2023-06-18T08:06:17.000Z</time>
      </trkpt>
      <trkpt lat="47.51213" lon="-0.35865">
        <ele>60.8</ele>
        <time>2023-06-18T08:06:27.000Z</time>
      </trkpt>
      <trkpt lat="47.51229" lon="-0.35835">
        <ele>61.5</ele>
        <time>2023-06-18T08:06:33.000Z</time>
      </trkpt>
      <trkpt lat="47.5125" lon="-0.35808">
        <ele>63</ele>
        <time>2023-06-18T08:06:39.000Z</time>
      </trkpt>
      <trkpt lat="47.51269" lon="-0.35769">
        <ele>64.4</ele>
        <time>2023-06-18T08:06:49.000Z</time>
      </trkpt>
      <trkpt lat="47.51331" lon="-0.35699">
        <ele>67</ele>
        <time>2023-06-18T08:07:09.000Z</time>
      </trkpt>
      <trkpt lat="47.51367" lon="-0.35647">
        <ele>66</ele>
        <time>2023-06-18T08:07:21.000Z</time>
      </trkpt>
      <trkpt lat="47.51392" lon="-0.35604">
        <ele>66</ele>
        <time>2023-06-18T08:07:31.000Z</time>
      </trkpt>
      <trkpt lat="47.51413" lon="-0.35586">
        <ele>65.2</ele>
        <time>2023-06-18T08:07:37.000Z</time>
      </trkpt>
      <trkpt lat="47.51434" lon="-0.35557">
        <ele>65.6</ele>
        <time>2023-06-18T08:07:45.000Z</time>
      </trkpt>
      <trkpt lat="47.51438" lon="-0.35553">
        <ele>65.8</ele>
        <time>2023-06-18T08:07:47.000Z</time>
      </trkpt>
      <trkpt lat="47.51439" lon="-0.3556">
        <ele>65.7</ele>
        <time>2023-06-18T08:08:07.000Z</time>
      </trkpt>
      <trkpt lat="47.51434" lon="-0.35565">
        <ele>65.4</ele>
        <time>2023-06-18T08:08:11.000Z</time>
      </trkpt>
      <trkpt lat="47.51437" lon="-0.35554">
        <ele>65.7</ele>
        <time>2023-06-18T08:08:21.000Z</time>
      </trkpt>
      <trkpt lat="47.51434" lon="-0.35552">
        <ele>65.6</ele>
        <time>2023-06-18T08:08:51.000Z</time>
      </trkpt>
      <trkpt lat="47.51435" lon="-0.35546">
        <ele>65.7</ele>
        <time>2023-06-18T08:09:25.000Z</time>
      </trkpt>
      <trkpt lat="47.51383" lon="-0.35452">
        <ele>65.4</ele>
        <time>2023-06-18T08:09:47.000Z</time>
      </trkpt>
      <trkpt lat="47.5134" lon="-0.35394">
        <ele>66</ele>
        <time>2023-06-18T08:09:57.000Z</time>
      </trkpt>
      <trkpt lat="47.51323" lon="-0.35357">
        <ele>66</ele>
        <time>2023-06-18T08:10:03.000Z</time>
      </trkpt>
      <trkpt lat="47.51273" lon="-0.3531">
        <ele>66</ele>
        <time>2023-06-18T08:10:15.000Z</time>
      </trkpt>
      <trkpt lat="47.51262" lon="-0.35302">
        <ele>66</ele>
        <time>2023-06-18T08:10:25.000Z</time>
      </trkpt>
      <trkpt lat="47.5126" lon="-0.35304">
        <ele>66</ele>
        <time>2023-06-18T08:11:33.000Z</time>
      </trkpt>
      <trkpt lat="47.51258" lon="-0.35298">
        <ele>66</ele>
        <time>2023-06-18T08:12:05.000Z</time>
      </trkpt>
      <trkpt lat="47.5126" lon="-0.35302">
        <ele>66</ele>
        <time>2023-06-18T08:13:51.000Z</time>
      </trkpt>
      <trkpt lat="47.51263" lon="-0.35301">
        <ele>66</ele>
        <time>2023-06-18T08:14:47.000Z</time>
      </trkpt>
      <trkpt lat="47.5126" lon="-0.35294">
        <ele>66</ele>
        <time>2023-06-18T08:15:21.000Z</time>
      </trkpt>
      <trkpt lat="47.51265" lon="-0.35289">
        <ele>66</ele>
        <time>2023-06-18T08:15:25.000Z</time>
      </trkpt>
      <trkpt lat="47.51362" lon="-0.3523">
        <ele>66</ele>
        <time>2023-06-18T08:15:47.000Z</time>
      </trkpt>
      <trkpt lat="47.51437" lon="-0.35177">
        <ele>66</ele>
        <time>2023-06-18T08:16:03.000Z</time>
      </trkpt>
      <trkpt lat="47.51471" lon="-0.35147">
        <ele>65.3</ele>
        <time>2023-06-18T08:16:09.000Z</time>
      </trkpt>
      <trkpt lat="47.51493" lon="-0.35122">
        <ele>64.5</ele>
        <time>2023-06-18T08:16:13.000Z</time>
      </trkpt>
      <trkpt lat="47.51544" lon="-0.35093">
        <ele>63.7</ele>
        <time>2023-06-18T08:16:21.000Z</time>
      </trkpt>
      <trkpt lat="47.51605" lon="-0.35046">
        <ele>63</ele>
        <time>2023-06-18T08:16:31.000Z</time>
      </trkpt>
      <trkpt lat="47.51662" lon="-0.34984">
        <ele>62</ele>
        <time>2023-06-18T08:16:41.000Z</time>
      </trkpt>
      <trkpt lat="47.51696" lon="-0.34961">
        <ele>61</ele>
        <time>2023-06-18T08:16:47.000Z</time>
      </trkpt>
      <trkpt lat="47.51736" lon="-0.34901">
        <ele>60.7</ele>
        <time>2023-06-18T08:16:55.000Z</time>
      </trkpt>
      <trkpt lat="47.51745" lon="-0.34863">
        <ele>60.8</ele>
        <time>2023-06-18T08:16:59.000Z</time>
      </trkpt>
      <trkpt lat="47.51795" lon="-0.34777">
        <ele>61</ele>
        <time>2023-06-18T08:17:11.000Z</time>
      </trkpt>
      <trkpt lat="47.51843" lon="-0.34702">
        <ele>61</ele>
        <time>2023-06-18T08:17:23.000Z</time>
      </trkpt>
      <trkpt lat="47.51877" lon="-0.34665">
        <ele>61</ele>
        <time>2023-06-18T08:17:31.000Z</time>
      </trkpt>
      <trkpt lat="47.5188" lon="-0.34655">
        <ele>61</ele>
        <time>2023-06-18T08:17:33.000Z</time>
      </trkpt>
      <trkpt lat="47.51873" lon="-0.34629">
        <ele>61</ele>
        <time>2023-06-18T08:17:37.000Z</time>
      </trkpt>
      <trkpt lat="47.51849" lon="-0.34585">
        <ele>61</ele>
        <time>2023-06-18T08:17:43.000Z</time>
      </trkpt>
      <trkpt lat="47.51822" lon="-0.34519">
        <ele>61</ele>
        <time>2023-06-18T08:17:51.000Z</time>
      </trkpt>
      <trkpt lat="47.51802" lon="-0.34422">
        <ele>60</ele>
        <time>2023-06-18T08:18:01.000Z</time>
      </trkpt>
      <trkpt lat="47.51779" lon="-0.34344">
        <ele>60</ele>
        <time>2023-06-18T08:18:09.000Z</time>
      </trkpt>
      <trkpt lat="47.5176" lon="-0.34253">
        <ele>59</ele>
        <time>2023-06-18T08:18:19.000Z</time>
      </trkpt>
      <trkpt lat="47.51742" lon="-0.34203">
        <ele>58</ele>
        <time>2023-06-18T08:18:25.000Z</time>
      </trkpt>
      <trkpt lat="47.51735" lon="-0.3419">
        <ele>57.9</ele>
        <time>2023-06-18T08:18:27.000Z</time>
      </trkpt>
      <trkpt lat="47.51713" lon="-0.34169">
        <ele>57.4</ele>
        <time>2023-06-18T08:18:31.000Z</time>
      </trkpt>
      <trkpt lat="47.5169" lon="-0.34154">
        <ele>57.6</ele>
        <time>2023-06-18T08:18:35.000Z</time>
      </trkpt>
      <trkpt lat="47.51601" lon="-0.34124">
        <ele>59</ele>
        <time>2023-06-18T08:18:51.000Z</time>
      </trkpt>
      <trkpt lat="47.51563" lon="-0.34095">
        <ele>59</ele>
        <time>2023-06-18T08:18:59.000Z</time>
      </trkpt>
      <trkpt lat="47.51534" lon="-0.34062">
        <ele>59</ele>
        <time>2023-06-18T08:19:05.000Z</time>
      </trkpt>
      <trkpt lat="47.51497" lon="-0.34029">
        <ele>60.1</ele>
        <time>2023-06-18T08:19:13.000Z</time>
      </trkpt>
      <trkpt lat="47.51469" lon="-0.34013">
        <ele>61.1</ele>
        <time>2023-06-18T08:19:19.000Z</time>
      </trkpt>
      <trkpt lat="47.51457" lon="-0.33998">
        <ele>61.6</ele>
        <time>2023-06-18T08:19:27.000Z</time>
      </trkpt>
      <trkpt lat="47.51457" lon="-0.33988">
        <ele>61.6</ele>
        <time>2023-06-18T08:19:31.000Z</time>
      </trkpt>
      <trkpt lat="47.5147" lon="-0.33964">
        <ele>61.1</ele>
        <time>2023-06-18T08:19:37.000Z</time>
      </trkpt>
      <trkpt lat="47.51479" lon="-0.33937">
        <ele>61</ele>
        <time>2023-06-18T08:19:41.000Z</time>
      </trkpt>
      <trkpt lat="47.51504" lon="-0.33893">
        <ele>60.1</ele>
        <time>2023-06-18T08:19:47.000Z</time>
      </trkpt>
      <trkpt lat="47.51524" lon="-0.33837">
        <ele>60.9</ele>
        <time>2023-06-18T08:19:55.000Z</time>
      </trkpt>
      <trkpt lat="47.51531" lon="-0.33804">
        <ele>60</ele>
        <time>2023-06-18T08:19:59.000Z</time>
      </trkpt>
      <trkpt lat="47.51522" lon="-0.3377">
        <ele>60.2</ele>
        <time>2023-06-18T08:20:03.000Z</time>
      </trkpt>
      <trkpt lat="47.51511" lon="-0.33752">
        <ele>60.6</ele>
        <time>2023-06-18T08:20:07.000Z</time>
      </trkpt>
      <trkpt lat="47.51491" lon="-0.33738">
        <ele>60.6</ele>
        <time>2023-06-18T08:20:11.000Z</time>
      </trkpt>
      <trkpt lat="47.5144" lon="-0.33722">
        <ele>61.2</ele>
        <time>2023-06-18T08:20:19.000Z</time>
      </trkpt>
      <trkpt lat="47.51423" lon="-0.33707">
        <ele>61.8</ele>
        <time>2023-06-18T08:20:25.000Z</time>
      </trkpt>
      <trkpt lat="47.51375" lon="-0.33697">
        <ele>62</ele>
        <time>2023-06-18T08:20:35.000Z</time>
      </trkpt>
      <trkpt lat="47.51356" lon="-0.33682">
        <ele>62.2</ele>
        <time>2023-06-18T08:20:41.000Z</time>
      </trkpt>
      <trkpt lat="47.51283" lon="-0.33663">
        <ele>63</ele>
        <time>2023-06-18T08:20:55.000Z</time>
      </trkpt>
      <trkpt lat="47.5122" lon="-0.33617">
        <ele>63</ele>
        <time>2023-06-18T08:21:09.000Z</time>
      </trkpt>
      <trkpt lat="47.51207" lon="-0.33599">
        <ele>62.8</ele>
        <time>2023-06-18T08:21:13.000Z</time>
      </trkpt>
      <trkpt lat="47.51155" lon="-0.33489">
        <ele>57.8</ele>
        <time>2023-06-18T08:21:25.000Z</time>
      </trkpt>
      <trkpt lat="47.51087" lon="-0.33396">
        <ele>51.6</ele>
        <time>2023-06-18T08:21:35.000Z</time>
      </trkpt>
      <trkpt lat="47.51077" lon="-0.33376">
        <ele>50.7</ele>
        <time>2023-06-18T08:21:37.000Z</time>
      </trkpt>
      <trkpt lat="47.51068" lon="-0.33354">
        <ele>49.7</ele>
        <time>2023-06-18T08:21:39.000Z</time>
      </trkpt>
      <trkpt lat="47.51049" lon="-0.33283">
        <ele>47.2</ele>
        <time>2023-06-18T08:21:45.000Z</time>
      </trkpt>
      <trkpt lat="47.5104" lon="-0.33264">
        <ele>46.7</ele>
        <time>2023-06-18T08:21:47.000Z</time>
      </trkpt>
      <trkpt lat="47.51028" lon="-0.3325">
        <ele>46</ele>
        <time>2023-06-18T08:21:49.000Z</time>
      </trkpt>
      <trkpt lat="47.50936" lon="-0.33181">
        <ele>42.4</ele>
        <time>2023-06-18T08:22:03.000Z</time>
      </trkpt>
      <trkpt lat="47.50926" lon="-0.33179">
        <ele>42.1</ele>
        <time>2023-06-18T08:22:05.000Z</time>
      </trkpt>
      <trkpt lat="47.50914" lon="-0.33184">
        <ele>42.1</ele>
        <time>2023-06-18T08:22:07.000Z</time>
      </trkpt>
      <trkpt lat="47.50886" lon="-0.33221">
        <ele>42.6</ele>
        <time>2023-06-18T08:22:13.000Z</time>
      </trkpt>
      <trkpt lat="47.50873" lon="-0.33251">
        <ele>42.3</ele>
        <time>2023-06-18T08:22:17.000Z</time>
      </trkpt>
      <trkpt lat="47.50852" lon="-0.3332">
        <ele>43.6</ele>
        <time>2023-06-18T08:22:25.000Z</time>
      </trkpt>
      <trkpt lat="47.5083" lon="-0.33369">
        <ele>42</ele>
        <time>2023-06-18T08:22:31.000Z</time>
      </trkpt>
      <trkpt lat="47.50822" lon="-0.33379">
        <ele>41.3</ele>
        <time>2023-06-18T08:22:33.000Z</time>
      </trkpt>
      <trkpt lat="47.50811" lon="-0.33381">
        <ele>40</ele>
        <time>2023-06-18T08:22:35.000Z</time>
      </trkpt>
      <trkpt lat="47.50741" lon="-0.33331">
        <ele>35.7</ele>
        <time>2023-06-18T08:22:45.000Z</time>
      </trkpt>
      <trkpt lat="47.50605" lon="-0.33207">
        <ele>31</ele>
        <time>2023-06-18T08:23:05.000Z</time>
      </trkpt>
      <trkpt lat="47.50487" lon="-0.33069">
        <ele>33.5</ele>
        <time>2023-06-18T08:23:31.000Z</time>
      </trkpt>
      <trkpt lat="47.50396" lon="-0.32982">
        <ele>34.8</ele>
        <time>2023-06-18T08:23:53.000Z</time>
      </trkpt>
      <trkpt lat="47.5038" lon="-0.32945">
        <ele>34.3</ele>
        <time>2023-06-18T08:23:59.000Z</time>
      </trkpt>
      <trkpt lat="47.50346" lon="-0.32886">
        <ele>35.5</ele>
        <time>2023-06-18T08:24:09.000Z</time>
      </trkpt>
      <trkpt lat="47.5024" lon="-0.32736">
        <ele>41.3</ele>
        <time>2023-06-18T08:24:47.000Z</time>
      </trkpt>
      <trkpt lat="47.50219" lon="-0.32677">
        <ele>44</ele>
        <time>2023-06-18T08:25:01.000Z</time>
      </trkpt>
      <trkpt lat="47.50198" lon="-0.32515">
        <ele>48.9</ele>
        <time>2023-06-18T08:25:37.000Z</time>
      </trkpt>
      <trkpt lat="47.50194" lon="-0.32493">
        <ele>48.7</ele>
        <time>2023-06-18T08:25:41.000Z</time>
      </trkpt>
      <trkpt lat="47.5019" lon="-0.32484">
        <ele>48.4</ele>
        <time>2023-06-18T08:25:43.000Z</time>
      </trkpt>
      <trkpt lat="47.50185" lon="-0.3248">
        <ele>48.3</ele>
        <time>2023-06-18T08:25:45.000Z</time>
      </trkpt>
      <trkpt lat="47.50154" lon="-0.32476">
        <ele>47.7</ele>
        <time>2023-06-18T08:25:53.000Z</time>
      </trkpt>
      <trkpt lat="47.49909" lon="-0.32488">
        <ele>37.4</ele>
        <time>2023-06-18T08:26:30.000Z</time>
      </trkpt>
      <trkpt lat="47.49893" lon="-0.32481">
        <ele>37</ele>
        <time>2023-06-18T08:26:36.000Z</time>
      </trkpt>
      <trkpt lat="47.49893" lon="-0.32458">
        <ele>36.6</ele>
        <time>2023-06-18T08:26:40.000Z</time>
      </trkpt>
      <trkpt lat="47.49922" lon="-0.32345">
        <ele>34.6</ele>
        <time>2023-06-18T08:26:54.000Z</time>
      </trkpt>
      <trkpt lat="47.49942" lon="-0.32205">
        <ele>31.4</ele>
        <time>2023-06-18T08:27:10.000Z</time>
      </trkpt>
      <trkpt lat="47.49922" lon="-0.32203">
        <ele>32.1</ele>
        <time>2023-06-18T08:27:14.000Z</time>
      </trkpt>
      <trkpt lat="47.4987" lon="-0.32212">
        <ele>31.2</ele>
        <time>2023-06-18T08:27:22.000Z</time>
      </trkpt>
      <trkpt lat="47.49845" lon="-0.32205">
        <ele>30.4</ele>
        <time>2023-06-18T08:27:26.000Z</time>
      </trkpt>
      <trkpt lat="47.49785" lon="-0.32206">
        <ele>30</ele>
        <time>2023-06-18T08:27:36.000Z</time>
      </trkpt>
      <trkpt lat="47.49679" lon="-0.3222">
        <ele>33.5</ele>
        <time>2023-06-18T08:28:00.000Z</time>
      </trkpt>
      <trkpt lat="47.49664" lon="-0.32218">
        <ele>34.1</ele>
        <time>2023-06-18T08:28:04.000Z</time>
      </trkpt>
      <trkpt lat="47.49659" lon="-0.3221">
        <ele>34.3</ele>
        <time>2023-06-18T08:28:06.000Z</time>
      </trkpt>
      <trkpt lat="47.49657" lon="-0.32198">
        <ele>34.3</ele>
        <time>2023-06-18T08:28:08.000Z</time>
      </trkpt>
      <trkpt lat="47.49661" lon="-0.32138">
        <ele>33.2</ele>
        <time>2023-06-18T08:28:16.000Z</time>
      </trkpt>
      <trkpt lat="47.49679" lon="-0.31993">
        <ele>31.1</ele>
        <time>2023-06-18T08:28:36.000Z</time>
      </trkpt>
      <trkpt lat="47.49678" lon="-0.31963">
        <ele>30.8</ele>
        <time>2023-06-18T08:28:40.000Z</time>
      </trkpt>
      <trkpt lat="47.49676" lon="-0.31952">
        <ele>29.9</ele>
        <time>2023-06-18T08:28:42.000Z</time>
      </trkpt>
      <trkpt lat="47.4967" lon="-0.31946">
        <ele>29.3</ele>
        <time>2023-06-18T08:28:44.000Z</time>
      </trkpt>
      <trkpt lat="47.49563" lon="-0.31938">
        <ele>25.7</ele>
        <time>2023-06-18T08:29:04.000Z</time>
      </trkpt>
      <trkpt lat="47.49554" lon="-0.31942">
        <ele>25.8</ele>
        <time>2023-06-18T08:29:06.000Z</time>
      </trkpt>
      <trkpt lat="47.49523" lon="-0.31974">
        <ele>24.9</ele>
        <time>2023-06-18T08:29:12.000Z</time>
      </trkpt>
      <trkpt lat="47.49491" lon="-0.31996">
        <ele>25.4</ele>
        <time>2023-06-18T08:29:18.000Z</time>
      </trkpt>
      <trkpt lat="47.49442" lon="-0.32044">
        <ele>26.2</ele>
        <time>2023-06-18T08:29:28.000Z</time>
      </trkpt>
      <trkpt lat="47.49422" lon="-0.32053">
        <ele>26.8</ele>
        <time>2023-06-18T08:29:32.000Z</time>
      </trkpt>
      <trkpt lat="47.49402" lon="-0.32047">
        <ele>26.4</ele>
        <time>2023-06-18T08:29:36.000Z</time>
      </trkpt>
      <trkpt lat="47.49382" lon="-0.32034">
        <ele>25.9</ele>
        <time>2023-06-18T08:29:40.000Z</time>
      </trkpt>
      <trkpt lat="47.49332" lon="-0.31978">
        <ele>25.2</ele>
        <time>2023-06-18T08:29:52.000Z</time>
      </trkpt>
      <trkpt lat="47.49312" lon="-0.31964">
        <ele>25.5</ele>
        <time>2023-06-18T08:29:56.000Z</time>
      </trkpt>
      <trkpt lat="47.49217" lon="-0.31964">
        <ele>27.2</ele>
        <time>2023-06-18T08:30:16.000Z</time>
      </trkpt>
      <trkpt lat="47.49133" lon="-0.3195">
        <ele>28.4</ele>
        <time>2023-06-18T08:30:38.000Z</time>
      </trkpt>
      <trkpt lat="47.48998" lon="-0.31923">
        <ele>28</ele>
        <time>2023-06-18T08:31:08.000Z</time>
      </trkpt>
      <trkpt lat="47.48935" lon="-0.319">
        <ele>27.4</ele>
        <time>2023-06-18T08:31:22.000Z</time>
      </trkpt>
      <trkpt lat="47.48931" lon="-0.3189">
        <ele>27</ele>
        <time>2023-06-18T08:31:24.000Z</time>
      </trkpt>
      <trkpt lat="47.4893" lon="-0.31877">
        <ele>27</ele>
        <time>2023-06-18T08:31:26.000Z</time>
      </trkpt>
      <trkpt lat="47.48958" lon="-0.31714">
        <ele>24.7</ele>
        <time>2023-06-18T08:31:46.000Z</time>
      </trkpt>
      <trkpt lat="47.48996" lon="-0.31532">
        <ele>23</ele>
        <time>2023-06-18T08:32:06.000Z</time>
      </trkpt>
      <trkpt lat="47.49029" lon="-0.31416">
        <ele>24.1</ele>
        <time>2023-06-18T08:32:22.000Z</time>
      </trkpt>
      <trkpt lat="47.49035" lon="-0.31409">
        <ele>24.5</ele>
        <time>2023-06-18T08:32:24.000Z</time>
      </trkpt>
      <trkpt lat="47.49042" lon="-0.31412">
        <ele>24.6</ele>
        <time>2023-06-18T08:32:26.000Z</time>
      </trkpt>
      <trkpt lat="47.49057" lon="-0.31427">
        <ele>25</ele>
        <time>2023-06-18T08:32:30.000Z</time>
      </trkpt>
      <trkpt lat="47.49064" lon="-0.31427">
        <ele>25.3</ele>
        <time>2023-06-18T08:32:32.000Z</time>
      </trkpt>
      <trkpt lat="47.49147" lon="-0.31375">
        <ele>29.4</ele>
        <time>2023-06-18T08:32:58.000Z</time>
      </trkpt>
      <trkpt lat="47.49173" lon="-0.31348">
        <ele>31.3</ele>
        <time>2023-06-18T08:33:10.000Z</time>
      </trkpt>
      <trkpt lat="47.49277" lon="-0.31289">
        <ele>40.5</ele>
        <time>2023-06-18T08:34:02.000Z</time>
      </trkpt>
      <trkpt lat="47.49293" lon="-0.31283">
        <ele>41.9</ele>
        <time>2023-06-18T08:34:10.000Z</time>
      </trkpt>
      <trkpt lat="47.4932" lon="-0.31257">
        <ele>43.5</ele>
        <time>2023-06-18T08:34:24.000Z</time>
      </trkpt>
      <trkpt lat="47.49362" lon="-0.31232">
        <ele>45</ele>
        <time>2023-06-18T08:34:40.000Z</time>
      </trkpt>
      <trkpt lat="47.49374" lon="-0.31232">
        <ele>45.3</ele>
        <time>2023-06-18T08:34:44.000Z</time>
      </trkpt>
      <trkpt lat="47.49382" lon="-0.31243">
        <ele>45.2</ele>
        <time>2023-06-18T08:34:48.000Z</time>
      </trkpt>
      <trkpt lat="47.49385" lon="-0.31325">
        <ele>44</ele>
        <time>2023-06-18T08:35:00.000Z</time>
      </trkpt>
      <trkpt lat="47.4939" lon="-0.31356">
        <ele>43.2</ele>
        <time>2023-06-18T08:35:04.000Z</time>
      </trkpt>
      <trkpt lat="47.49419" lon="-0.31441">
        <ele>42.8</ele>
        <time>2023-06-18T08:35:14.000Z</time>
      </trkpt>
      <trkpt lat="47.49473" lon="-0.31624">
        <ele>41</ele>
        <time>2023-06-18T08:35:36.000Z</time>
      </trkpt>
      <trkpt lat="47.49484" lon="-0.31658">
        <ele>40.2</ele>
        <time>2023-06-18T08:35:40.000Z</time>
      </trkpt>
      <trkpt lat="47.49492" lon="-0.3167">
        <ele>39.9</ele>
        <time>2023-06-18T08:35:42.000Z</time>
      </trkpt>
      <trkpt lat="47.49501" lon="-0.31667">
        <ele>40</ele>
        <time>2023-06-18T08:35:44.000Z</time>
      </trkpt>
      <trkpt lat="47.49529" lon="-0.3163">
        <ele>39</ele>
        <time>2023-06-18T08:35:50.000Z</time>
      </trkpt>
      <trkpt lat="47.4958" lon="-0.31582">
        <ele>37.1</ele>
        <time>2023-06-18T08:36:00.000Z</time>
      </trkpt>
      <trkpt lat="47.49599" lon="-0.31556">
        <ele>35.9</ele>
        <time>2023-06-18T08:36:04.000Z</time>
      </trkpt>
      <trkpt lat="47.49609" lon="-0.31521">
        <ele>35.2</ele>
        <time>2023-06-18T08:36:08.000Z</time>
      </trkpt>
      <trkpt lat="47.49635" lon="-0.31357">
        <ele>34.1</ele>
        <time>2023-06-18T08:36:28.000Z</time>
      </trkpt>
      <trkpt lat="47.49642" lon="-0.31228">
        <ele>37.6</ele>
        <time>2023-06-18T08:36:56.000Z</time>
      </trkpt>
      <trkpt lat="47.49654" lon="-0.31138">
        <ele>42.1</ele>
        <time>2023-06-18T08:37:24.000Z</time>
      </trkpt>
      <trkpt lat="47.49659" lon="-0.31123">
        <ele>43</ele>
        <time>2023-06-18T08:37:30.000Z</time>
      </trkpt>
      <trkpt lat="47.49675" lon="-0.31094">
        <ele>45.8</ele>
        <time>2023-06-18T08:37:44.000Z</time>
      </trkpt>
      <trkpt lat="47.49682" lon="-0.31075">
        <ele>47.4</ele>
        <time>2023-06-18T08:37:52.000Z</time>
      </trkpt>
      <trkpt lat="47.49727" lon="-0.30853">
        <ele>57</ele>
        <time>2023-06-18T08:39:20.000Z</time>
      </trkpt>
      <trkpt lat="47.49731" lon="-0.30803">
        <ele>57</ele>
        <time>2023-06-18T08:39:32.000Z</time>
      </trkpt>
      <trkpt lat="47.49745" lon="-0.30754">
        <ele>53.1</ele>
        <time>2023-06-18T08:39:46.000Z</time>
      </trkpt>
      <trkpt lat="47.49748" lon="-0.3073">
        <ele>54.9</ele>
        <time>2023-06-18T08:39:50.000Z</time>
      </trkpt>
      <trkpt lat="47.49747" lon="-0.30699">
        <ele>55.8</ele>
        <time>2023-06-18T08:39:54.000Z</time>
      </trkpt>
      <trkpt lat="47.49741" lon="-0.30656">
        <ele>54.7</ele>
        <time>2023-06-18T08:40:00.000Z</time>
      </trkpt>
      <trkpt lat="47.49733" lon="-0.3063">
        <ele>54.6</ele>
        <time>2023-06-18T08:40:04.000Z</time>
      </trkpt>
      <trkpt lat="47.49709" lon="-0.30576">
        <ele>57.5</ele>
        <time>2023-06-18T08:40:12.000Z</time>
      </trkpt>
      <trkpt lat="47.49698" lon="-0.30362">
        <ele>53.1</ele>
        <time>2023-06-18T08:40:30.000Z</time>
      </trkpt>
      <trkpt lat="47.49678" lon="-0.30348">
        <ele>51.8</ele>
        <time>2023-06-18T08:40:34.000Z</time>
      </trkpt>
      <trkpt lat="47.49606" lon="-0.30338">
        <ele>48.8</ele>
        <time>2023-06-18T08:40:44.000Z</time>
      </trkpt>
      <trkpt lat="47.49554" lon="-0.3032">
        <ele>47</ele>
        <time>2023-06-18T08:40:52.000Z</time>
      </trkpt>
      <trkpt lat="47.49543" lon="-0.30309">
        <ele>46.6</ele>
        <time>2023-06-18T08:40:54.000Z</time>
      </trkpt>
      <trkpt lat="47.49534" lon="-0.30294">
        <ele>46.2</ele>
        <time>2023-06-18T08:40:56.000Z</time>
      </trkpt>
      <trkpt lat="47.49518" lon="-0.30234">
        <ele>44.7</ele>
        <time>2023-06-18T08:41:02.000Z</time>
      </trkpt>
      <trkpt lat="47.4951" lon="-0.30215">
        <ele>43.6</ele>
        <time>2023-06-18T08:41:04.000Z</time>
      </trkpt>
      <trkpt lat="47.49498" lon="-0.30198">
        <ele>42.9</ele>
        <time>2023-06-18T08:41:06.000Z</time>
      </trkpt>
      <trkpt lat="47.49469" lon="-0.30179">
        <ele>40.9</ele>
        <time>2023-06-18T08:41:10.000Z</time>
      </trkpt>
      <trkpt lat="47.49384" lon="-0.30159">
        <ele>37.9</ele>
        <time>2023-06-18T08:41:22.000Z</time>
      </trkpt>
      <trkpt lat="47.49358" lon="-0.30147">
        <ele>37.3</ele>
        <time>2023-06-18T08:41:26.000Z</time>
      </trkpt>
      <trkpt lat="47.49332" lon="-0.30149">
        <ele>37</ele>
        <time>2023-06-18T08:41:30.000Z</time>
      </trkpt>
      <trkpt lat="47.49212" lon="-0.30197">
        <ele>38.4</ele>
        <time>2023-06-18T08:41:52.000Z</time>
      </trkpt>
      <trkpt lat="47.49093" lon="-0.30256">
        <ele>41</ele>
        <time>2023-06-18T08:42:16.000Z</time>
      </trkpt>
      <trkpt lat="47.48922" lon="-0.3033">
        <ele>36.4</ele>
        <time>2023-06-18T08:42:46.000Z</time>
      </trkpt>
      <trkpt lat="47.4875" lon="-0.3037">
        <ele>28</ele>
        <time>2023-06-18T08:43:10.000Z</time>
      </trkpt>
      <trkpt lat="47.4874" lon="-0.30365">
        <ele>27.6</ele>
        <time>2023-06-18T08:43:12.000Z</time>
      </trkpt>
      <trkpt lat="47.48733" lon="-0.30354">
        <ele>27.6</ele>
        <time>2023-06-18T08:43:14.000Z</time>
      </trkpt>
      <trkpt lat="47.48708" lon="-0.30131">
        <ele>27.1</ele>
        <time>2023-06-18T08:43:42.000Z</time>
      </trkpt>
      <trkpt lat="47.487" lon="-0.30097">
        <ele>27.1</ele>
        <time>2023-06-18T08:43:46.000Z</time>
      </trkpt>
      <trkpt lat="47.48693" lon="-0.30087">
        <ele>27</ele>
        <time>2023-06-18T08:43:48.000Z</time>
      </trkpt>
      <trkpt lat="47.48684" lon="-0.30086">
        <ele>26.7</ele>
        <time>2023-06-18T08:43:50.000Z</time>
      </trkpt>
      <trkpt lat="47.48605" lon="-0.30122">
        <ele>26.3</ele>
        <time>2023-06-18T08:44:04.000Z</time>
      </trkpt>
      <trkpt lat="47.4858" lon="-0.30129">
        <ele>26</ele>
        <time>2023-06-18T08:44:08.000Z</time>
      </trkpt>
      <trkpt lat="47.48529" lon="-0.30124">
        <ele>26</ele>
        <time>2023-06-18T08:44:16.000Z</time>
      </trkpt>
      <trkpt lat="47.48484" lon="-0.30133">
        <ele>25</ele>
        <time>2023-06-18T08:44:24.000Z</time>
      </trkpt>
      <trkpt lat="47.48457" lon="-0.30147">
        <ele>25</ele>
        <time>2023-06-18T08:44:28.000Z</time>
      </trkpt>
      <trkpt lat="47.48393" lon="-0.30191">
        <ele>25</ele>
        <time>2023-06-18T08:44:44.000Z</time>
      </trkpt>
      <trkpt lat="47.4839" lon="-0.30178">
        <ele>25</ele>
        <time>2023-06-18T08:44:48.000Z</time>
      </trkpt>
      <trkpt lat="47.48381" lon="-0.30051">
        <ele>24.7</ele>
        <time>2023-06-18T08:45:06.000Z</time>
      </trkpt>
      <trkpt lat="47.48388" lon="-0.29903">
        <ele>25.9</ele>
        <time>2023-06-18T08:45:24.000Z</time>
      </trkpt>
      <trkpt lat="47.48399" lon="-0.29837">
        <ele>26.3</ele>
        <time>2023-06-18T08:45:34.000Z</time>
      </trkpt>
      <trkpt lat="47.48443" lon="-0.29701">
        <ele>28.7</ele>
        <time>2023-06-18T08:45:58.000Z</time>
      </trkpt>
      <trkpt lat="47.48442" lon="-0.29689">
        <ele>28.9</ele>
        <time>2023-06-18T08:46:00.000Z</time>
      </trkpt>
      <trkpt lat="47.48437" lon="-0.29679">
        <ele>28.9</ele>
        <time>2023-06-18T08:46:02.000Z</time>
      </trkpt>
      <trkpt lat="47.48429" lon="-0.29672">
        <ele>28.9</ele>
        <time>2023-06-18T08:46:04.000Z</time>
      </trkpt>
      <trkpt lat="47.48367" lon="-0.29648">
        <ele>28</ele>
        <time>2023-06-18T08:46:18.000Z</time>
      </trkpt>
      <trkpt lat="47.48319" lon="-0.29635">
        <ele>28</ele>
        <time>2023-06-18T08:46:28.000Z</time>
      </trkpt>
      <trkpt lat="47.48285" lon="-0.29619">
        <ele>27.8</ele>
        <time>2023-06-18T08:46:34.000Z</time>
      </trkpt>
      <trkpt lat="47.48217" lon="-0.29552">
        <ele>28.1</ele>
        <time>2023-06-18T08:46:50.000Z</time>
      </trkpt>
      <trkpt lat="47.48192" lon="-0.29514">
        <ele>29</ele>
        <time>2023-06-18T08:46:58.000Z</time>
      </trkpt>
      <trkpt lat="47.48184" lon="-0.29488">
        <ele>29.3</ele>
        <time>2023-06-18T08:47:02.000Z</time>
      </trkpt>
      <trkpt lat="47.48172" lon="-0.29424">
        <ele>30.7</ele>
        <time>2023-06-18T08:47:12.000Z</time>
      </trkpt>
      <trkpt lat="47.48162" lon="-0.2939">
        <ele>31</ele>
        <time>2023-06-18T08:47:18.000Z</time>
      </trkpt>
      <trkpt lat="47.48095" lon="-0.29222">
        <ele>35</ele>
        <time>2023-06-18T08:47:54.000Z</time>
      </trkpt>
      <trkpt lat="47.48077" lon="-0.29155">
        <ele>37.4</ele>
        <time>2023-06-18T08:48:10.000Z</time>
      </trkpt>
      <trkpt lat="47.48047" lon="-0.29083">
        <ele>43.7</ele>
        <time>2023-06-18T08:48:36.000Z</time>
      </trkpt>
      <trkpt lat="47.48008" lon="-0.28958">
        <ele>46.9</ele>
        <time>2023-06-18T08:49:20.000Z</time>
      </trkpt>
      <trkpt lat="47.47948" lon="-0.28803">
        <ele>48.2</ele>
        <time>2023-06-18T08:49:58.000Z</time>
      </trkpt>
      <trkpt lat="47.47857" lon="-0.28482">
        <ele>50.7</ele>
        <time>2023-06-18T08:50:58.000Z</time>
      </trkpt>
      <trkpt lat="47.47851" lon="-0.28477">
        <ele>50.2</ele>
        <time>2023-06-18T08:51:00.000Z</time>
      </trkpt>
      <trkpt lat="47.47842" lon="-0.28477">
        <ele>49.6</ele>
        <time>2023-06-18T08:51:02.000Z</time>
      </trkpt>
      <trkpt lat="47.47824" lon="-0.28483">
        <ele>48.3</ele>
        <time>2023-06-18T08:51:06.000Z</time>
      </trkpt>
      <trkpt lat="47.47695" lon="-0.2855">
        <ele>38.2</ele>
        <time>2023-06-18T08:51:20.000Z</time>
      </trkpt>
      <trkpt lat="47.47681" lon="-0.28554">
        <ele>37.6</ele>
        <time>2023-06-18T08:51:22.000Z</time>
      </trkpt>
      <trkpt lat="47.47669" lon="-0.28551">
        <ele>37.3</ele>
        <time>2023-06-18T08:51:24.000Z</time>
      </trkpt>
      <trkpt lat="47.47663" lon="-0.2854">
        <ele>37.3</ele>
        <time>2023-06-18T08:51:26.000Z</time>
      </trkpt>
      <trkpt lat="47.47662" lon="-0.28526">
        <ele>37.6</ele>
        <time>2023-06-18T08:51:28.000Z</time>
      </trkpt>
      <trkpt lat="47.47665" lon="-0.28402">
        <ele>38.9</ele>
        <time>2023-06-18T08:51:44.000Z</time>
      </trkpt>
      <trkpt lat="47.4766" lon="-0.28259">
        <ele>39.5</ele>
        <time>2023-06-18T08:52:02.000Z</time>
      </trkpt>
      <trkpt lat="47.4766" lon="-0.28196">
        <ele>40.2</ele>
        <time>2023-06-18T08:52:12.000Z</time>
      </trkpt>
      <trkpt lat="47.47657" lon="-0.28186">
        <ele>39.7</ele>
        <time>2023-06-18T08:52:14.000Z</time>
      </trkpt>
      <trkpt lat="47.4764" lon="-0.28181">
        <ele>38.1</ele>
        <time>2023-06-18T08:52:18.000Z</time>
      </trkpt>
      <trkpt lat="47.47548" lon="-0.28198">
        <ele>35.2</ele>
        <time>2023-06-18T08:52:34.000Z</time>
      </trkpt>
      <trkpt lat="47.47539" lon="-0.28197">
        <ele>35.6</ele>
        <time>2023-06-18T08:52:36.000Z</time>
      </trkpt>
      <trkpt lat="47.47532" lon="-0.28188">
        <ele>35.5</ele>
        <time>2023-06-18T08:52:38.000Z</time>
      </trkpt>
      <trkpt lat="47.47527" lon="-0.28174">
        <ele>34.5</ele>
        <time>2023-06-18T08:52:40.000Z</time>
      </trkpt>
      <trkpt lat="47.47523" lon="-0.28008">
        <ele>35</ele>
        <time>2023-06-18T08:53:00.000Z</time>
      </trkpt>
      <trkpt lat="47.47518" lon="-0.27964">
        <ele>35</ele>
        <time>2023-06-18T08:53:06.000Z</time>
      </trkpt>
      <trkpt lat="47.47515" lon="-0.27875">
        <ele>35</ele>
        <time>2023-06-18T08:53:18.000Z</time>
      </trkpt>
      <trkpt lat="47.47497" lon="-0.27778">
        <ele>35</ele>
        <time>2023-06-18T08:53:32.000Z</time>
      </trkpt>
      <trkpt lat="47.47463" lon="-0.2762">
        <ele>36</ele>
        <time>2023-06-18T08:53:56.000Z</time>
      </trkpt>
      <trkpt lat="47.47461" lon="-0.27593">
        <ele>36</ele>
        <time>2023-06-18T08:54:00.000Z</time>
      </trkpt>
      <trkpt lat="47.47465" lon="-0.27526">
        <ele>36.1</ele>
        <time>2023-06-18T08:54:10.000Z</time>
      </trkpt>
      <trkpt lat="47.47465" lon="-0.27474">
        <ele>37</ele>
        <time>2023-06-18T08:54:18.000Z</time>
      </trkpt>
      <trkpt lat="47.47457" lon="-0.27454">
        <ele>37</ele>
        <time>2023-06-18T08:54:22.000Z</time>
      </trkpt>
      <trkpt lat="47.47344" lon="-0.27374">
        <ele>39.8</ele>
        <time>2023-06-18T08:54:52.000Z</time>
      </trkpt>
      <trkpt lat="47.47306" lon="-0.27357">
        <ele>42.1</ele>
        <time>2023-06-18T08:55:04.000Z</time>
      </trkpt>
      <trkpt lat="47.47229" lon="-0.27346">
        <ele>45.3</ele>
        <time>2023-06-18T08:55:30.000Z</time>
      </trkpt>
      <trkpt lat="47.47137" lon="-0.27366">
        <ele>46</ele>
        <time>2023-06-18T08:55:58.000Z</time>
      </trkpt>
      <trkpt lat="47.47112" lon="-0.27361">
        <ele>46</ele>
        <time>2023-06-18T08:56:04.000Z</time>
      </trkpt>
      <trkpt lat="47.47025" lon="-0.27329">
        <ele>45</ele>
        <time>2023-06-18T08:56:24.000Z</time>
      </trkpt>
      <trkpt lat="47.46954" lon="-0.27335">
        <ele>44</ele>
        <time>2023-06-18T08:56:32.000Z</time>
      </trkpt>
      <trkpt lat="47.46906" lon="-0.2735">
        <ele>42.6</ele>
        <time>2023-06-18T08:56:40.000Z</time>
      </trkpt>
      <trkpt lat="47.46841" lon="-0.2736">
        <ele>40.3</ele>
        <time>2023-06-18T08:56:50.000Z</time>
      </trkpt>
      <trkpt lat="47.46804" lon="-0.27375">
        <ele>39.5</ele>
        <time>2023-06-18T08:56:56.000Z</time>
      </trkpt>
      <trkpt lat="47.4664" lon="-0.27545">
        <ele>33.4</ele>
        <time>2023-06-18T08:57:26.000Z</time>
      </trkpt>
      <trkpt lat="47.46618" lon="-0.2756">
        <ele>33</ele>
        <time>2023-06-18T08:57:30.000Z</time>
      </trkpt>
      <trkpt lat="47.46606" lon="-0.2756">
        <ele>33.1</ele>
        <time>2023-06-18T08:57:32.000Z</time>
      </trkpt>
      <trkpt lat="47.46589" lon="-0.27542">
        <ele>33.9</ele>
        <time>2023-06-18T08:57:36.000Z</time>
      </trkpt>
      <trkpt lat="47.46573" lon="-0.27506">
        <ele>35.2</ele>
        <time>2023-06-18T08:57:42.000Z</time>
      </trkpt>
      <trkpt lat="47.46509" lon="-0.27395">
        <ele>38.1</ele>
        <time>2023-06-18T08:58:06.000Z</time>
      </trkpt>
      <trkpt lat="47.46443" lon="-0.27294">
        <ele>36.4</ele>
        <time>2023-06-18T08:58:26.000Z</time>
      </trkpt>
      <trkpt lat="47.46358" lon="-0.27154">
        <ele>34.5</ele>
        <time>2023-06-18T08:58:50.000Z</time>
      </trkpt>
      <trkpt lat="47.46242" lon="-0.2699">
        <ele>33</ele>
        <time>2023-06-18T08:59:22.000Z</time>
      </trkpt>
      <trkpt lat="47.46206" lon="-0.26974">
        <ele>32.4</ele>
        <time>2023-06-18T08:59:30.000Z</time>
      </trkpt>
      <trkpt lat="47.46165" lon="-0.26939">
        <ele>32.8</ele>
        <time>2023-06-18T08:59:40.000Z</time>
      </trkpt>
      <trkpt lat="47.46157" lon="-0.26935">
        <ele>32.4</ele>
        <time>2023-06-18T08:59:42.000Z</time>
      </trkpt>
      <trkpt lat="47.46143" lon="-0.26941">
        <ele>32.1</ele>
        <time>2023-06-18T08:59:46.000Z</time>
      </trkpt>
      <trkpt lat="47.46097" lon="-0.27037">
        <ele>32</ele>
        <time>2023-06-18T09:00:02.000Z</time>
      </trkpt>
      <trkpt lat="47.46094" lon="-0.2705">
        <ele>32</ele>
        <time>2023-06-18T09:00:04.000Z</time>
      </trkpt>
      <trkpt lat="47.46098" lon="-0.27076">
        <ele>32</ele>
        <time>2023-06-18T09:00:08.000Z</time>
      </trkpt>
      <trkpt lat="47.4611" lon="-0.27098">
        <ele>32</ele>
        <time>2023-06-18T09:00:12.000Z</time>
      </trkpt>
      <trkpt lat="47.46122" lon="-0.27112">
        <ele>32.4</ele>
        <time>2023-06-18T09:00:16.000Z</time>
      </trkpt>
      <trkpt lat="47.46146" lon="-0.27128">
        <ele>33</ele>
        <time>2023-06-18T09:00:26.000Z</time>
      </trkpt>
    </trkseg>
  </trk>
</gpx>